<?xml version="1.0" encoding="UTF-8" standalone="no" ?>
<gpx xmlns="http://www.topografix.com/GPX/1/1" creator="OruxMaps v.10.7.2 GP" version="1.1" xmlns:gpxtpx="http://www.garmin.com/xmlschemas/TrackPointExtension/v2" xmlns:xsi="http://www.w3.org/2001/XMLSchema-instance" xmlns:om="http://www.oruxmaps.com/oruxmapsextensions/1/0" xsi:schemaLocation="http://www.topografix.com/GPX/1/1 http://www.topografix.com/GPX/1/1/gpx.xsd">
<!-- owner: b9c65f69f0f6d0 -->
<metadata>
<name><![CDATA[2024-08-28 10:36:49]]></name>
<link href="https://www.oruxmaps.com">
<text>OruxMaps GP</text>
</link>
<time>2024-08-28T08:36:49.779Z</time><bounds maxlat="41.7959250" maxlon="13.7843483" minlat="41.7600433" minlon="13.7672883"/>
</metadata>
<wpt lat="41.7948433" lon="13.7834517">
<ele>1153.96</ele>
<time>2024-08-28T08:36:58.115Z</time>
<name><![CDATA[]]></name>
<sym>Waypoint</sym>
<type>Punto iniziale</type>
<extensions>
<om:oruxmapsextensions>
<om:ext type="ICON" subtype="0">38</om:ext>
</om:oruxmapsextensions>
</extensions>
</wpt>
<wpt lat="41.7829717" lon="13.7708200">
<ele>1354.65</ele>
<time>2024-08-28T09:05:58.792Z</time>
<name><![CDATA[0061760]]></name>
<sym>Waypoint</sym>
<type>Foto</type>
<extensions>
<om:oruxmapsextensions>
<om:ext type="ICON" subtype="0">3</om:ext>
<om:ext type="IMAGEN" subtype="0">/storage/emulated/0/oruxmaps/pictures/OMIMG_20240828_110532.jpg</om:ext>
</om:oruxmapsextensions>
</extensions>
</wpt>
<wpt lat="41.7793450" lon="13.7713017">
<ele>1366.55</ele>
<time>2024-08-28T09:11:43.004Z</time>
<name><![CDATA[0061761]]></name>
<sym>Waypoint</sym>
<type>Foto</type>
<extensions>
<om:oruxmapsextensions>
<om:ext type="ICON" subtype="0">3</om:ext>
<om:ext type="IMAGEN" subtype="0">/storage/emulated/0/oruxmaps/pictures/OMIMG_20240828_111128.jpg</om:ext>
</om:oruxmapsextensions>
</extensions>
</wpt>
<wpt lat="41.7792383" lon="13.7717417">
<ele>1359.95</ele>
<time>2024-08-28T09:12:44.899Z</time>
<name><![CDATA[0061762]]></name>
<sym>Waypoint</sym>
<type>Foto</type>
<extensions>
<om:oruxmapsextensions>
<om:ext type="ICON" subtype="0">3</om:ext>
<om:ext type="IMAGEN" subtype="0">/storage/emulated/0/oruxmaps/pictures/OMIMG_20240828_111233.jpg</om:ext>
</om:oruxmapsextensions>
</extensions>
</wpt>
<wpt lat="41.7746517" lon="13.7714967">
<ele>0.00</ele>
<time>2024-08-28T09:17:24.973Z</time>
<name><![CDATA[0061763]]></name>
<sym>Waypoint</sym>
<type>Foto</type>
<extensions>
<om:oruxmapsextensions>
<om:ext type="ICON" subtype="0">3</om:ext>
<om:ext type="IMAGEN" subtype="0">/storage/emulated/0/oruxmaps/pictures/OMIMG_20240828_111712.jpg</om:ext>
</om:oruxmapsextensions>
</extensions>
</wpt>
<wpt lat="41.7701650" lon="13.7693017">
<ele>1433.65</ele>
<time>2024-08-28T09:30:48.685Z</time>
<name><![CDATA[0061764]]></name>
<sym>Waypoint</sym>
<type>Foto</type>
<extensions>
<om:oruxmapsextensions>
<om:ext type="ICON" subtype="0">3</om:ext>
<om:ext type="IMAGEN" subtype="0">/storage/emulated/0/oruxmaps/pictures/OMIMG_20240828_112748.jpg</om:ext>
</om:oruxmapsextensions>
</extensions>
</wpt>
<wpt lat="41.7684217" lon="13.7687600">
<ele>1477.96</ele>
<time>2024-08-28T09:31:02.117Z</time>
<name><![CDATA[0061765]]></name>
<sym>Waypoint</sym>
<type>Foto</type>
<extensions>
<om:oruxmapsextensions>
<om:ext type="ICON" subtype="0">3</om:ext>
<om:ext type="IMAGEN" subtype="0">/storage/emulated/0/oruxmaps/pictures/OMIMG_20240828_113052.jpg</om:ext>
</om:oruxmapsextensions>
</extensions>
</wpt>
<wpt lat="41.7608433" lon="13.7817433">
<ele>0.00</ele>
<time>2024-08-28T09:41:40.836Z</time>
<name><![CDATA[0061766]]></name>
<sym>Waypoint</sym>
<type>Foto</type>
<extensions>
<om:oruxmapsextensions>
<om:ext type="ICON" subtype="0">3</om:ext>
<om:ext type="IMAGEN" subtype="0">/storage/emulated/0/oruxmaps/pictures/OMIMG_20240828_114133.jpg</om:ext>
</om:oruxmapsextensions>
</extensions>
</wpt>
<wpt lat="41.7742333" lon="13.7714483">
<ele>1415.85</ele>
<time>2024-08-28T10:04:53.702Z</time>
<name><![CDATA[0061767]]></name>
<sym>Waypoint</sym>
<type>Foto</type>
<extensions>
<om:oruxmapsextensions>
<om:ext type="ICON" subtype="0">3</om:ext>
<om:ext type="IMAGEN" subtype="0">/storage/emulated/0/oruxmaps/pictures/OMIMG_20240828_120421.jpg</om:ext>
</om:oruxmapsextensions>
</extensions>
</wpt>
<wpt lat="41.7959250" lon="13.7843483">
<ele>1159.26</ele>
<time>2024-08-28T10:30:14.302Z</time>
<name><![CDATA[]]></name>
<desc><![CDATA[<p><br /><h3>Nome: Segment: 1</h3><br />Tipo: Non definito<br/>Orario inizio: 10:36 28 Ago 2024<br/>Orario fine: 12:30 28 Ago 2024<br/>Distanza: 14,2km (01:53)<br/>Tempo movimento: 01:41<br/>Velocità media: 7,51 km/h<br/>Velocità in movimento: 8,35 km/h<br/>Velocità max: 36,42 km/h<br/>Altitudine minima: 1152 m<br/>Altitudine massima: 1497 m<br/>Velocità di salita: 684,0 m/h<br/>Velocità in discesa: 852,7 m/h<br/>Dislivello positivo: 645 m<br/>Dislivello negativo: 641 m<br/>Tempo di salita: 00:56<br/>Tempo di discesa: 00:45<br/></p>]]></desc>
<sym>Waypoint</sym>
<type>Punto finale</type>
<extensions>
<om:oruxmapsextensions>
<om:ext type="ICON" subtype="0">15</om:ext>
</om:oruxmapsextensions>
</extensions>
</wpt>
<trk>
<name><![CDATA[2024-08-28 10:36:49]]></name>
<desc><![CDATA[<p>Tipo: Non definito<br/>Orario inizio: 10:36 28 Ago 2024<br/>Orario fine: 12:30 28 Ago 2024<br/>Distanza: 14,2 km (01:53)<br/>Tempo movimento: 01:41<br/>Velocità media: 7,51 km/h<br/>Velocità in movimento: 8,35 km/h<br/>Velocità max: 36,42 km/h<br/>Altitudine minima: 1152 m<br/>Altitudine massima: 1497 m<br/>Velocità di salita: 684,0 m/h<br/>Velocità in discesa: 852,7 m/h<br/>Dislivello positivo: 645 m<br/>Dislivello negativo: 641 m<br/>Tempo di salita: 00:56<br/>Tempo di discesa: 00:45<br/></p><hr align="center" width="480" style="height: 2px; width: 517px"/>]]></desc>
<type>Non definito</type>
<extensions>
<om:oruxmapsextensions>
<om:ext type="TYPE" subtype="0">0</om:ext>
<om:ext type="DIFFICULTY">0</om:ext>
</om:oruxmapsextensions>
</extensions>
<trkseg>
<trkpt lat="41.7948433" lon="13.7834517">
<ele>1153.96</ele>
<time>2024-08-28T08:36:58.125Z</time>
</trkpt>
<trkpt lat="41.7950067" lon="13.7833350">
<ele>1153.89</ele>
<time>2024-08-28T08:37:02.121Z</time>
</trkpt>
<trkpt lat="41.7956117" lon="13.7831233">
<ele>1153.86</ele>
<time>2024-08-28T08:37:04.144Z</time>
</trkpt>
<trkpt lat="41.7954133" lon="13.7833317">
<ele>1154.02</ele>
<time>2024-08-28T08:37:09.000Z</time>
</trkpt>
<trkpt lat="41.7954033" lon="13.7830900">
<ele>1156.62</ele>
<time>2024-08-28T08:38:21.000Z</time>
</trkpt>
<trkpt lat="41.7954000" lon="13.7828267">
<ele>1153.57</ele>
<time>2024-08-28T08:38:27.000Z</time>
</trkpt>
<trkpt lat="41.7953617" lon="13.7825750">
<ele>1154.92</ele>
<time>2024-08-28T08:38:34.000Z</time>
</trkpt>
<trkpt lat="41.7951933" lon="13.7824550">
<ele>1161.65</ele>
<time>2024-08-28T08:38:41.000Z</time>
</trkpt>
<trkpt lat="41.7950350" lon="13.7823050">
<ele>1161.66</ele>
<time>2024-08-28T08:38:48.000Z</time>
</trkpt>
<trkpt lat="41.7948817" lon="13.7821517">
<ele>1160.99</ele>
<time>2024-08-28T08:38:55.000Z</time>
</trkpt>
<trkpt lat="41.7947250" lon="13.7820000">
<ele>1157.90</ele>
<time>2024-08-28T08:39:04.000Z</time>
</trkpt>
<trkpt lat="41.7945567" lon="13.7818583">
<ele>1159.48</ele>
<time>2024-08-28T08:39:13.000Z</time>
</trkpt>
<trkpt lat="41.7944267" lon="13.7816867">
<ele>1158.83</ele>
<time>2024-08-28T08:39:22.000Z</time>
</trkpt>
<trkpt lat="41.7943600" lon="13.7814617">
<ele>1159.72</ele>
<time>2024-08-28T08:39:31.000Z</time>
</trkpt>
<trkpt lat="41.7943067" lon="13.7812183">
<ele>1159.01</ele>
<time>2024-08-28T08:39:41.000Z</time>
</trkpt>
<trkpt lat="41.7942383" lon="13.7809800">
<ele>1161.92</ele>
<time>2024-08-28T08:39:50.000Z</time>
</trkpt>
<trkpt lat="41.7941667" lon="13.7807517">
<ele>1162.65</ele>
<time>2024-08-28T08:39:59.000Z</time>
</trkpt>
<trkpt lat="41.7940750" lon="13.7805150">
<ele>1161.86</ele>
<time>2024-08-28T08:40:08.000Z</time>
</trkpt>
<trkpt lat="41.7939933" lon="13.7802883">
<ele>1163.93</ele>
<time>2024-08-28T08:40:17.000Z</time>
</trkpt>
<trkpt lat="41.7939117" lon="13.7800417">
<ele>1166.45</ele>
<time>2024-08-28T08:40:27.000Z</time>
</trkpt>
<trkpt lat="41.7938150" lon="13.7798200">
<ele>1164.92</ele>
<time>2024-08-28T08:40:35.000Z</time>
</trkpt>
<trkpt lat="41.7937217" lon="13.7795850">
<ele>1166.44</ele>
<time>2024-08-28T08:40:44.000Z</time>
</trkpt>
<trkpt lat="41.7936233" lon="13.7793783">
<ele>1169.43</ele>
<time>2024-08-28T08:40:53.000Z</time>
</trkpt>
<trkpt lat="41.7935050" lon="13.7791783">
<ele>1171.98</ele>
<time>2024-08-28T08:41:04.000Z</time>
</trkpt>
<trkpt lat="41.7933183" lon="13.7790633">
<ele>1169.90</ele>
<time>2024-08-28T08:41:12.000Z</time>
</trkpt>
<trkpt lat="41.7931400" lon="13.7789833">
<ele>1169.50</ele>
<time>2024-08-28T08:41:20.000Z</time>
</trkpt>
<trkpt lat="41.7929600" lon="13.7788933">
<ele>1168.75</ele>
<time>2024-08-28T08:41:29.000Z</time>
</trkpt>
<trkpt lat="41.7927850" lon="13.7787867">
<ele>1171.11</ele>
<time>2024-08-28T08:41:38.000Z</time>
</trkpt>
<trkpt lat="41.7926050" lon="13.7787133">
<ele>1171.89</ele>
<time>2024-08-28T08:41:47.000Z</time>
</trkpt>
<trkpt lat="41.7924183" lon="13.7786333">
<ele>1172.31</ele>
<time>2024-08-28T08:41:56.000Z</time>
</trkpt>
<trkpt lat="41.7922383" lon="13.7785400">
<ele>1174.57</ele>
<time>2024-08-28T08:42:05.000Z</time>
</trkpt>
<trkpt lat="41.7920800" lon="13.7784200">
<ele>1176.63</ele>
<time>2024-08-28T08:42:14.000Z</time>
</trkpt>
<trkpt lat="41.7919317" lon="13.7782767">
<ele>1177.31</ele>
<time>2024-08-28T08:42:23.000Z</time>
</trkpt>
<trkpt lat="41.7917417" lon="13.7782050">
<ele>1176.92</ele>
<time>2024-08-28T08:42:33.000Z</time>
</trkpt>
<trkpt lat="41.7915467" lon="13.7781950">
<ele>1178.18</ele>
<time>2024-08-28T08:42:43.000Z</time>
</trkpt>
<trkpt lat="41.7913667" lon="13.7781717">
<ele>1179.69</ele>
<time>2024-08-28T08:42:54.000Z</time>
</trkpt>
<trkpt lat="41.7911883" lon="13.7780933">
<ele>1183.19</ele>
<time>2024-08-28T08:43:05.000Z</time>
</trkpt>
<trkpt lat="41.7910083" lon="13.7780183">
<ele>1184.73</ele>
<time>2024-08-28T08:43:14.000Z</time>
</trkpt>
<trkpt lat="41.7908317" lon="13.7779233">
<ele>1186.51</ele>
<time>2024-08-28T08:43:23.000Z</time>
</trkpt>
<trkpt lat="41.7906583" lon="13.7778467">
<ele>1186.53</ele>
<time>2024-08-28T08:43:33.000Z</time>
</trkpt>
<trkpt lat="41.7904983" lon="13.7777350">
<ele>1187.31</ele>
<time>2024-08-28T08:43:44.000Z</time>
</trkpt>
<trkpt lat="41.7903083" lon="13.7777033">
<ele>1190.47</ele>
<time>2024-08-28T08:43:57.000Z</time>
</trkpt>
<trkpt lat="41.7901367" lon="13.7776133">
<ele>1192.82</ele>
<time>2024-08-28T08:44:08.000Z</time>
</trkpt>
<trkpt lat="41.7899617" lon="13.7774900">
<ele>1193.97</ele>
<time>2024-08-28T08:44:20.000Z</time>
</trkpt>
<trkpt lat="41.7898133" lon="13.7773433">
<ele>1196.46</ele>
<time>2024-08-28T08:44:33.000Z</time>
</trkpt>
<trkpt lat="41.7896717" lon="13.7771683">
<ele>1195.76</ele>
<time>2024-08-28T08:44:45.000Z</time>
</trkpt>
<trkpt lat="41.7895583" lon="13.7769783">
<ele>1194.49</ele>
<time>2024-08-28T08:44:57.000Z</time>
</trkpt>
<trkpt lat="41.7894883" lon="13.7767450">
<ele>1196.95</ele>
<time>2024-08-28T08:45:11.000Z</time>
</trkpt>
<trkpt lat="41.7893800" lon="13.7765233">
<ele>1201.65</ele>
<time>2024-08-28T08:45:25.000Z</time>
</trkpt>
<trkpt lat="41.7892583" lon="13.7763317">
<ele>1204.86</ele>
<time>2024-08-28T08:45:38.000Z</time>
</trkpt>
<trkpt lat="41.7891217" lon="13.7761467">
<ele>1204.85</ele>
<time>2024-08-28T08:45:52.000Z</time>
</trkpt>
<trkpt lat="41.7890433" lon="13.7759067">
<ele>1204.16</ele>
<time>2024-08-28T08:46:06.000Z</time>
</trkpt>
<trkpt lat="41.7890867" lon="13.7756617">
<ele>1202.94</ele>
<time>2024-08-28T08:46:16.000Z</time>
</trkpt>
<trkpt lat="41.7890083" lon="13.7754267">
<ele>1208.70</ele>
<time>2024-08-28T08:46:32.000Z</time>
</trkpt>
<trkpt lat="41.7889967" lon="13.7751683">
<ele>1208.26</ele>
<time>2024-08-28T08:46:45.000Z</time>
</trkpt>
<trkpt lat="41.7889150" lon="13.7749417">
<ele>1210.95</ele>
<time>2024-08-28T08:46:59.000Z</time>
</trkpt>
<trkpt lat="41.7887617" lon="13.7747983">
<ele>1222.95</ele>
<time>2024-08-28T08:47:16.000Z</time>
</trkpt>
<trkpt lat="41.7886083" lon="13.7746617">
<ele>1229.86</ele>
<time>2024-08-28T08:47:29.000Z</time>
</trkpt>
<trkpt lat="41.7884600" lon="13.7745050">
<ele>1233.28</ele>
<time>2024-08-28T08:47:43.000Z</time>
</trkpt>
<trkpt lat="41.7883250" lon="13.7743250">
<ele>1231.92</ele>
<time>2024-08-28T08:47:54.000Z</time>
</trkpt>
<trkpt lat="41.7882067" lon="13.7741350">
<ele>1229.98</ele>
<time>2024-08-28T08:48:07.000Z</time>
</trkpt>
<trkpt lat="41.7880483" lon="13.7740017">
<ele>1227.92</ele>
<time>2024-08-28T08:48:18.000Z</time>
</trkpt>
<trkpt lat="41.7879167" lon="13.7738150">
<ele>1228.36</ele>
<time>2024-08-28T08:48:31.000Z</time>
</trkpt>
<trkpt lat="41.7877733" lon="13.7736550">
<ele>1226.48</ele>
<time>2024-08-28T08:48:43.000Z</time>
</trkpt>
<trkpt lat="41.7876000" lon="13.7735167">
<ele>1225.72</ele>
<time>2024-08-28T08:48:56.000Z</time>
</trkpt>
<trkpt lat="41.7874950" lon="13.7733183">
<ele>1226.50</ele>
<time>2024-08-28T08:49:13.000Z</time>
</trkpt>
<trkpt lat="41.7875000" lon="13.7730767">
<ele>1227.72</ele>
<time>2024-08-28T08:50:02.000Z</time>
</trkpt>
<trkpt lat="41.7873833" lon="13.7728900">
<ele>1231.64</ele>
<time>2024-08-28T08:50:15.000Z</time>
</trkpt>
<trkpt lat="41.7872350" lon="13.7727400">
<ele>1234.77</ele>
<time>2024-08-28T08:50:26.000Z</time>
</trkpt>
<trkpt lat="41.7871050" lon="13.7725500">
<ele>1237.69</ele>
<time>2024-08-28T08:50:39.000Z</time>
</trkpt>
<trkpt lat="41.7869600" lon="13.7724017">
<ele>1242.15</ele>
<time>2024-08-28T08:50:51.000Z</time>
</trkpt>
<trkpt lat="41.7869083" lon="13.7721633">
<ele>1247.55</ele>
<time>2024-08-28T08:51:04.000Z</time>
</trkpt>
<trkpt lat="41.7868050" lon="13.7719567">
<ele>1249.97</ele>
<time>2024-08-28T08:51:17.000Z</time>
</trkpt>
<trkpt lat="41.7868217" lon="13.7716967">
<ele>1249.83</ele>
<time>2024-08-28T08:51:32.000Z</time>
</trkpt>
<trkpt lat="41.7867700" lon="13.7714383">
<ele>1248.08</ele>
<time>2024-08-28T08:51:44.000Z</time>
</trkpt>
<trkpt lat="41.7866917" lon="13.7712200">
<ele>1243.97</ele>
<time>2024-08-28T08:51:53.000Z</time>
</trkpt>
<trkpt lat="41.7865917" lon="13.7710167">
<ele>1241.99</ele>
<time>2024-08-28T08:52:04.000Z</time>
</trkpt>
<trkpt lat="41.7865167" lon="13.7707767">
<ele>1239.82</ele>
<time>2024-08-28T08:52:16.000Z</time>
</trkpt>
<trkpt lat="41.7864817" lon="13.7705333">
<ele>1247.04</ele>
<time>2024-08-28T08:52:30.000Z</time>
</trkpt>
<trkpt lat="41.7865167" lon="13.7702817">
<ele>1254.49</ele>
<time>2024-08-28T08:52:44.000Z</time>
</trkpt>
<trkpt lat="41.7865733" lon="13.7700317">
<ele>1257.55</ele>
<time>2024-08-28T08:52:57.000Z</time>
</trkpt>
<trkpt lat="41.7866783" lon="13.7698250">
<ele>1257.67</ele>
<time>2024-08-28T08:53:08.000Z</time>
</trkpt>
<trkpt lat="41.7867967" lon="13.7696233">
<ele>1256.47</ele>
<time>2024-08-28T08:53:18.000Z</time>
</trkpt>
<trkpt lat="41.7868717" lon="13.7693950">
<ele>1256.44</ele>
<time>2024-08-28T08:53:30.000Z</time>
</trkpt>
<trkpt lat="41.7869033" lon="13.7691517">
<ele>1257.74</ele>
<time>2024-08-28T08:53:42.000Z</time>
</trkpt>
<trkpt lat="41.7869233" lon="13.7688967">
<ele>1258.00</ele>
<time>2024-08-28T08:53:54.000Z</time>
</trkpt>
<trkpt lat="41.7869800" lon="13.7686533">
<ele>1256.74</ele>
<time>2024-08-28T08:54:07.000Z</time>
</trkpt>
<trkpt lat="41.7871133" lon="13.7684900">
<ele>1258.47</ele>
<time>2024-08-28T08:54:16.000Z</time>
</trkpt>
<trkpt lat="41.7872133" lon="13.7682767">
<ele>1261.37</ele>
<time>2024-08-28T08:54:29.000Z</time>
</trkpt>
<trkpt lat="41.7872917" lon="13.7680483">
<ele>1264.13</ele>
<time>2024-08-28T08:54:43.000Z</time>
</trkpt>
<trkpt lat="41.7873600" lon="13.7678183">
<ele>1264.22</ele>
<time>2024-08-28T08:54:55.000Z</time>
</trkpt>
<trkpt lat="41.7873150" lon="13.7675833">
<ele>1264.65</ele>
<time>2024-08-28T08:55:05.000Z</time>
</trkpt>
<trkpt lat="41.7871383" lon="13.7676550">
<ele>1283.88</ele>
<time>2024-08-28T08:55:39.000Z</time>
</trkpt>
<trkpt lat="41.7870000" lon="13.7678350">
<ele>1284.82</ele>
<time>2024-08-28T08:55:50.000Z</time>
</trkpt>
<trkpt lat="41.7869083" lon="13.7680567">
<ele>1288.95</ele>
<time>2024-08-28T08:56:03.000Z</time>
</trkpt>
<trkpt lat="41.7868350" lon="13.7682850">
<ele>1290.42</ele>
<time>2024-08-28T08:56:17.000Z</time>
</trkpt>
<trkpt lat="41.7867717" lon="13.7685133">
<ele>1289.85</ele>
<time>2024-08-28T08:56:32.000Z</time>
</trkpt>
<trkpt lat="41.7866817" lon="13.7687250">
<ele>1293.14</ele>
<time>2024-08-28T08:56:43.000Z</time>
</trkpt>
<trkpt lat="41.7865333" lon="13.7689133">
<ele>1294.56</ele>
<time>2024-08-28T08:56:54.000Z</time>
</trkpt>
<trkpt lat="41.7864100" lon="13.7691083">
<ele>1297.08</ele>
<time>2024-08-28T08:57:06.000Z</time>
</trkpt>
<trkpt lat="41.7863250" lon="13.7693250">
<ele>1297.19</ele>
<time>2024-08-28T08:57:19.000Z</time>
</trkpt>
<trkpt lat="41.7861900" lon="13.7694850">
<ele>1297.59</ele>
<time>2024-08-28T08:57:31.000Z</time>
</trkpt>
<trkpt lat="41.7860717" lon="13.7697000">
<ele>1300.06</ele>
<time>2024-08-28T08:57:43.000Z</time>
</trkpt>
<trkpt lat="41.7859450" lon="13.7698833">
<ele>1298.29</ele>
<time>2024-08-28T08:57:55.000Z</time>
</trkpt>
<trkpt lat="41.7858383" lon="13.7701033">
<ele>1295.87</ele>
<time>2024-08-28T08:58:07.000Z</time>
</trkpt>
<trkpt lat="41.7857467" lon="13.7703200">
<ele>1295.93</ele>
<time>2024-08-28T08:58:19.000Z</time>
</trkpt>
<trkpt lat="41.7856483" lon="13.7705483">
<ele>1298.30</ele>
<time>2024-08-28T08:58:33.000Z</time>
</trkpt>
<trkpt lat="41.7855433" lon="13.7707550">
<ele>1300.99</ele>
<time>2024-08-28T08:58:44.000Z</time>
</trkpt>
<trkpt lat="41.7854783" lon="13.7710067">
<ele>1300.94</ele>
<time>2024-08-28T08:58:58.000Z</time>
</trkpt>
<trkpt lat="41.7853950" lon="13.7712400">
<ele>1298.16</ele>
<time>2024-08-28T08:59:11.000Z</time>
</trkpt>
<trkpt lat="41.7852700" lon="13.7714367">
<ele>1298.28</ele>
<time>2024-08-28T08:59:24.000Z</time>
</trkpt>
<trkpt lat="41.7851700" lon="13.7716583">
<ele>1300.92</ele>
<time>2024-08-28T08:59:36.000Z</time>
</trkpt>
<trkpt lat="41.7850783" lon="13.7718833">
<ele>1302.59</ele>
<time>2024-08-28T08:59:47.000Z</time>
</trkpt>
<trkpt lat="41.7850000" lon="13.7721117">
<ele>1307.04</ele>
<time>2024-08-28T09:00:00.000Z</time>
</trkpt>
<trkpt lat="41.7848600" lon="13.7722767">
<ele>1305.73</ele>
<time>2024-08-28T09:00:12.000Z</time>
</trkpt>
<trkpt lat="41.7847750" lon="13.7720567">
<ele>1308.86</ele>
<time>2024-08-28T09:00:28.000Z</time>
</trkpt>
<trkpt lat="41.7847400" lon="13.7718183">
<ele>1305.27</ele>
<time>2024-08-28T09:00:42.000Z</time>
</trkpt>
<trkpt lat="41.7847500" lon="13.7715633">
<ele>1303.70</ele>
<time>2024-08-28T09:00:55.000Z</time>
</trkpt>
<trkpt lat="41.7847767" lon="13.7713117">
<ele>1302.82</ele>
<time>2024-08-28T09:01:09.000Z</time>
</trkpt>
<trkpt lat="41.7848017" lon="13.7710533">
<ele>1302.70</ele>
<time>2024-08-28T09:01:20.000Z</time>
</trkpt>
<trkpt lat="41.7848367" lon="13.7708100">
<ele>1304.08</ele>
<time>2024-08-28T09:01:34.000Z</time>
</trkpt>
<trkpt lat="41.7848633" lon="13.7705650">
<ele>1305.03</ele>
<time>2024-08-28T09:01:45.000Z</time>
</trkpt>
<trkpt lat="41.7848250" lon="13.7703200">
<ele>1308.56</ele>
<time>2024-08-28T09:02:00.000Z</time>
</trkpt>
<trkpt lat="41.7847833" lon="13.7700800">
<ele>1308.78</ele>
<time>2024-08-28T09:02:12.000Z</time>
</trkpt>
<trkpt lat="41.7847517" lon="13.7698383">
<ele>1311.83</ele>
<time>2024-08-28T09:02:25.000Z</time>
</trkpt>
<trkpt lat="41.7847200" lon="13.7695950">
<ele>1322.83</ele>
<time>2024-08-28T09:02:43.000Z</time>
</trkpt>
<trkpt lat="41.7845600" lon="13.7697267">
<ele>1335.47</ele>
<time>2024-08-28T09:03:03.000Z</time>
</trkpt>
<trkpt lat="41.7844183" lon="13.7698800">
<ele>1341.00</ele>
<time>2024-08-28T09:03:14.000Z</time>
</trkpt>
<trkpt lat="41.7842917" lon="13.7700600">
<ele>1341.47</ele>
<time>2024-08-28T09:03:28.000Z</time>
</trkpt>
<trkpt lat="41.7841517" lon="13.7702150">
<ele>1337.59</ele>
<time>2024-08-28T09:03:40.000Z</time>
</trkpt>
<trkpt lat="41.7840083" lon="13.7703767">
<ele>1340.69</ele>
<time>2024-08-28T09:03:57.000Z</time>
</trkpt>
<trkpt lat="41.7838433" lon="13.7705217">
<ele>1341.04</ele>
<time>2024-08-28T09:04:10.000Z</time>
</trkpt>
<trkpt lat="41.7837083" lon="13.7706967">
<ele>1338.96</ele>
<time>2024-08-28T09:04:21.000Z</time>
</trkpt>
<trkpt lat="41.7835350" lon="13.7707617">
<ele>1334.77</ele>
<time>2024-08-28T09:04:40.000Z</time>
</trkpt>
<trkpt lat="41.7833900" lon="13.7706117">
<ele>1336.13</ele>
<time>2024-08-28T09:04:56.000Z</time>
</trkpt>
<trkpt lat="41.7829933" lon="13.7706250">
<ele>1349.59</ele>
<time>2024-08-28T09:05:29.000Z</time>
</trkpt>
<trkpt lat="41.7828133" lon="13.7709667">
<ele>1355.90</ele>
<time>2024-08-28T09:05:32.000Z</time>
</trkpt>
<trkpt lat="41.7827817" lon="13.7712067">
<ele>1356.81</ele>
<time>2024-08-28T09:05:34.000Z</time>
</trkpt>
<trkpt lat="41.7830083" lon="13.7711750">
<ele>1358.57</ele>
<time>2024-08-28T09:05:38.000Z</time>
</trkpt>
<trkpt lat="41.7830850" lon="13.7709433">
<ele>1358.24</ele>
<time>2024-08-28T09:05:43.000Z</time>
</trkpt>
<trkpt lat="41.7831783" lon="13.7707283">
<ele>1352.44</ele>
<time>2024-08-28T09:05:49.000Z</time>
</trkpt>
<trkpt lat="41.7833083" lon="13.7705467">
<ele>1345.26</ele>
<time>2024-08-28T09:05:59.000Z</time>
</trkpt>
<trkpt lat="41.7831267" lon="13.7705400">
<ele>1331.25</ele>
<time>2024-08-28T09:07:36.000Z</time>
</trkpt>
<trkpt lat="41.7829983" lon="13.7707150">
<ele>1340.05</ele>
<time>2024-08-28T09:07:48.000Z</time>
</trkpt>
<trkpt lat="41.7828250" lon="13.7705817">
<ele>1350.74</ele>
<time>2024-08-28T09:07:59.000Z</time>
</trkpt>
<trkpt lat="41.7826433" lon="13.7705367">
<ele>1351.35</ele>
<time>2024-08-28T09:08:07.000Z</time>
</trkpt>
<trkpt lat="41.7824767" lon="13.7704183">
<ele>1350.69</ele>
<time>2024-08-28T09:08:15.000Z</time>
</trkpt>
<trkpt lat="41.7822917" lon="13.7704150">
<ele>1352.65</ele>
<time>2024-08-28T09:08:24.000Z</time>
</trkpt>
<trkpt lat="41.7821117" lon="13.7704500">
<ele>1355.82</ele>
<time>2024-08-28T09:08:32.000Z</time>
</trkpt>
<trkpt lat="41.7819350" lon="13.7703917">
<ele>1357.36</ele>
<time>2024-08-28T09:08:43.000Z</time>
</trkpt>
<trkpt lat="41.7817450" lon="13.7703450">
<ele>1360.02</ele>
<time>2024-08-28T09:08:53.000Z</time>
</trkpt>
<trkpt lat="41.7815700" lon="13.7704300">
<ele>1361.24</ele>
<time>2024-08-28T09:09:01.000Z</time>
</trkpt>
<trkpt lat="41.7814033" lon="13.7705583">
<ele>1362.31</ele>
<time>2024-08-28T09:09:12.000Z</time>
</trkpt>
<trkpt lat="41.7812117" lon="13.7706350">
<ele>1359.32</ele>
<time>2024-08-28T09:09:22.000Z</time>
</trkpt>
<trkpt lat="41.7810200" lon="13.7706317">
<ele>1358.41</ele>
<time>2024-08-28T09:09:30.000Z</time>
</trkpt>
<trkpt lat="41.7808533" lon="13.7705250">
<ele>1355.04</ele>
<time>2024-08-28T09:09:37.000Z</time>
</trkpt>
<trkpt lat="41.7806733" lon="13.7704367">
<ele>1350.36</ele>
<time>2024-08-28T09:09:46.000Z</time>
</trkpt>
<trkpt lat="41.7804850" lon="13.7703767">
<ele>1348.49</ele>
<time>2024-08-28T09:09:55.000Z</time>
</trkpt>
<trkpt lat="41.7803083" lon="13.7704367">
<ele>1352.22</ele>
<time>2024-08-28T09:10:04.000Z</time>
</trkpt>
<trkpt lat="41.7801467" lon="13.7705700">
<ele>1356.02</ele>
<time>2024-08-28T09:10:12.000Z</time>
</trkpt>
<trkpt lat="41.7799633" lon="13.7706467">
<ele>1356.47</ele>
<time>2024-08-28T09:10:23.000Z</time>
</trkpt>
<trkpt lat="41.7797783" lon="13.7706800">
<ele>1360.92</ele>
<time>2024-08-28T09:10:31.000Z</time>
</trkpt>
<trkpt lat="41.7796217" lon="13.7708250">
<ele>1364.58</ele>
<time>2024-08-28T09:10:41.000Z</time>
</trkpt>
<trkpt lat="41.7794783" lon="13.7709800">
<ele>1367.71</ele>
<time>2024-08-28T09:10:48.000Z</time>
</trkpt>
<trkpt lat="41.7793933" lon="13.7711983">
<ele>1372.55</ele>
<time>2024-08-28T09:10:59.000Z</time>
</trkpt>
<trkpt lat="41.7792983" lon="13.7714050">
<ele>1369.35</ele>
<time>2024-08-28T09:11:52.000Z</time>
</trkpt>
<trkpt lat="41.7792367" lon="13.7716417">
<ele>1363.24</ele>
<time>2024-08-28T09:12:16.000Z</time>
</trkpt>
<trkpt lat="41.7790667" lon="13.7717333">
<ele>1354.73</ele>
<time>2024-08-28T09:13:05.000Z</time>
</trkpt>
<trkpt lat="41.7789017" lon="13.7715883">
<ele>1356.66</ele>
<time>2024-08-28T09:13:16.000Z</time>
</trkpt>
<trkpt lat="41.7787300" lon="13.7714667">
<ele>1358.77</ele>
<time>2024-08-28T09:13:24.000Z</time>
</trkpt>
<trkpt lat="41.7785733" lon="13.7713383">
<ele>1359.40</ele>
<time>2024-08-28T09:13:33.000Z</time>
</trkpt>
<trkpt lat="41.7784133" lon="13.7712167">
<ele>1357.04</ele>
<time>2024-08-28T09:13:41.000Z</time>
</trkpt>
<trkpt lat="41.7782483" lon="13.7711150">
<ele>1354.33</ele>
<time>2024-08-28T09:13:48.000Z</time>
</trkpt>
<trkpt lat="41.7780683" lon="13.7710300">
<ele>1357.19</ele>
<time>2024-08-28T09:13:58.000Z</time>
</trkpt>
<trkpt lat="41.7778833" lon="13.7709433">
<ele>1360.95</ele>
<time>2024-08-28T09:14:07.000Z</time>
</trkpt>
<trkpt lat="41.7777133" lon="13.7708283">
<ele>1361.62</ele>
<time>2024-08-28T09:14:16.000Z</time>
</trkpt>
<trkpt lat="41.7775267" lon="13.7707433">
<ele>1366.39</ele>
<time>2024-08-28T09:14:26.000Z</time>
</trkpt>
<trkpt lat="41.7773300" lon="13.7707200">
<ele>1379.51</ele>
<time>2024-08-28T09:14:36.000Z</time>
</trkpt>
<trkpt lat="41.7771333" lon="13.7707533">
<ele>1380.18</ele>
<time>2024-08-28T09:14:44.000Z</time>
</trkpt>
<trkpt lat="41.7769767" lon="13.7708733">
<ele>1375.07</ele>
<time>2024-08-28T09:14:52.000Z</time>
</trkpt>
<trkpt lat="41.7768350" lon="13.7710283">
<ele>1374.59</ele>
<time>2024-08-28T09:15:01.000Z</time>
</trkpt>
<trkpt lat="41.7766700" lon="13.7711683">
<ele>1380.00</ele>
<time>2024-08-28T09:15:12.000Z</time>
</trkpt>
<trkpt lat="41.7765417" lon="13.7713400">
<ele>1382.56</ele>
<time>2024-08-28T09:15:21.000Z</time>
</trkpt>
<trkpt lat="41.7763717" lon="13.7714650">
<ele>1380.82</ele>
<time>2024-08-28T09:15:31.000Z</time>
</trkpt>
<trkpt lat="41.7762350" lon="13.7716250">
<ele>1380.62</ele>
<time>2024-08-28T09:15:42.000Z</time>
</trkpt>
<trkpt lat="41.7760483" lon="13.7715983">
<ele>1381.53</ele>
<time>2024-08-28T09:15:56.000Z</time>
</trkpt>
<trkpt lat="41.7758717" lon="13.7715467">
<ele>1378.36</ele>
<time>2024-08-28T09:16:06.000Z</time>
</trkpt>
<trkpt lat="41.7756950" lon="13.7716133">
<ele>1378.67</ele>
<time>2024-08-28T09:16:16.000Z</time>
</trkpt>
<trkpt lat="41.7755000" lon="13.7716200">
<ele>1381.66</ele>
<time>2024-08-28T09:16:28.000Z</time>
</trkpt>
<trkpt lat="41.7753083" lon="13.7715933">
<ele>1382.01</ele>
<time>2024-08-28T09:16:38.000Z</time>
</trkpt>
<trkpt lat="41.7751233" lon="13.7715817">
<ele>1382.37</ele>
<time>2024-08-28T09:16:48.000Z</time>
</trkpt>
<trkpt lat="41.7749400" lon="13.7715567">
<ele>1378.84</ele>
<time>2024-08-28T09:17:01.000Z</time>
</trkpt>
<trkpt lat="41.7746500" lon="13.7714867">
<ele>1423.19</ele>
<time>2024-08-28T09:17:10.000Z</time>
</trkpt>
<trkpt lat="41.7744600" lon="13.7714767">
<ele>1450.90</ele>
<time>2024-08-28T09:17:13.000Z</time>
</trkpt>
<trkpt lat="41.7744650" lon="13.7717717">
<ele>1512.99</ele>
<time>2024-08-28T09:17:18.000Z</time>
</trkpt>
<trkpt lat="41.7742917" lon="13.7716633">
<ele>1521.30</ele>
<time>2024-08-28T09:17:21.000Z</time>
</trkpt>
<trkpt lat="41.7744833" lon="13.7715750">
<ele>1457.89</ele>
<time>2024-08-28T09:17:34.000Z</time>
</trkpt>
<trkpt lat="41.7746333" lon="13.7714267">
<ele>1404.90</ele>
<time>2024-08-28T09:17:45.000Z</time>
</trkpt>
<trkpt lat="41.7745700" lon="13.7711833">
<ele>1378.91</ele>
<time>2024-08-28T09:18:04.000Z</time>
</trkpt>
<trkpt lat="41.7745000" lon="13.7709383">
<ele>1379.12</ele>
<time>2024-08-28T09:18:14.000Z</time>
</trkpt>
<trkpt lat="41.7744933" lon="13.7706650">
<ele>1378.06</ele>
<time>2024-08-28T09:18:23.000Z</time>
</trkpt>
<trkpt lat="41.7745183" lon="13.7704083">
<ele>1375.67</ele>
<time>2024-08-28T09:18:33.000Z</time>
</trkpt>
<trkpt lat="41.7745767" lon="13.7701600">
<ele>1373.34</ele>
<time>2024-08-28T09:18:45.000Z</time>
</trkpt>
<trkpt lat="41.7745867" lon="13.7699117">
<ele>1375.02</ele>
<time>2024-08-28T09:18:59.000Z</time>
</trkpt>
<trkpt lat="41.7744600" lon="13.7697200">
<ele>1386.78</ele>
<time>2024-08-28T09:19:18.000Z</time>
</trkpt>
<trkpt lat="41.7742717" lon="13.7697017">
<ele>1396.23</ele>
<time>2024-08-28T09:19:30.000Z</time>
</trkpt>
<trkpt lat="41.7741117" lon="13.7698183">
<ele>1401.20</ele>
<time>2024-08-28T09:19:40.000Z</time>
</trkpt>
<trkpt lat="41.7739533" lon="13.7696867">
<ele>1401.97</ele>
<time>2024-08-28T09:19:51.000Z</time>
</trkpt>
<trkpt lat="41.7739350" lon="13.7694317">
<ele>1401.93</ele>
<time>2024-08-28T09:20:04.000Z</time>
</trkpt>
<trkpt lat="41.7737917" lon="13.7692700">
<ele>1400.58</ele>
<time>2024-08-28T09:20:19.000Z</time>
</trkpt>
<trkpt lat="41.7736700" lon="13.7690733">
<ele>1396.68</ele>
<time>2024-08-28T09:20:30.000Z</time>
</trkpt>
<trkpt lat="41.7735983" lon="13.7688300">
<ele>1394.19</ele>
<time>2024-08-28T09:20:41.000Z</time>
</trkpt>
<trkpt lat="41.7735617" lon="13.7685750">
<ele>1395.01</ele>
<time>2024-08-28T09:20:53.000Z</time>
</trkpt>
<trkpt lat="41.7734117" lon="13.7684217">
<ele>1405.94</ele>
<time>2024-08-28T09:21:12.000Z</time>
</trkpt>
<trkpt lat="41.7732567" lon="13.7682817">
<ele>1409.90</ele>
<time>2024-08-28T09:21:25.000Z</time>
</trkpt>
<trkpt lat="41.7730817" lon="13.7681900">
<ele>1417.22</ele>
<time>2024-08-28T09:21:40.000Z</time>
</trkpt>
<trkpt lat="41.7729033" lon="13.7682683">
<ele>1429.38</ele>
<time>2024-08-28T09:21:54.000Z</time>
</trkpt>
<trkpt lat="41.7727100" lon="13.7683117">
<ele>1431.73</ele>
<time>2024-08-28T09:22:07.000Z</time>
</trkpt>
<trkpt lat="41.7725450" lon="13.7684267">
<ele>1428.18</ele>
<time>2024-08-28T09:22:17.000Z</time>
</trkpt>
<trkpt lat="41.7724067" lon="13.7685833">
<ele>1426.99</ele>
<time>2024-08-28T09:22:33.000Z</time>
</trkpt>
<trkpt lat="41.7722083" lon="13.7686150">
<ele>1422.43</ele>
<time>2024-08-28T09:22:45.000Z</time>
</trkpt>
<trkpt lat="41.7720200" lon="13.7686850">
<ele>1417.54</ele>
<time>2024-08-28T09:22:55.000Z</time>
</trkpt>
<trkpt lat="41.7718367" lon="13.7687917">
<ele>1417.94</ele>
<time>2024-08-28T09:23:07.000Z</time>
</trkpt>
<trkpt lat="41.7716550" lon="13.7688533">
<ele>1419.65</ele>
<time>2024-08-28T09:23:19.000Z</time>
</trkpt>
<trkpt lat="41.7716717" lon="13.7686083">
<ele>1420.86</ele>
<time>2024-08-28T09:23:31.000Z</time>
</trkpt>
<trkpt lat="41.7717933" lon="13.7684300">
<ele>1424.40</ele>
<time>2024-08-28T09:23:42.000Z</time>
</trkpt>
<trkpt lat="41.7719583" lon="13.7683267">
<ele>1427.21</ele>
<time>2024-08-28T09:23:53.000Z</time>
</trkpt>
<trkpt lat="41.7721283" lon="13.7682150">
<ele>1428.62</ele>
<time>2024-08-28T09:24:03.000Z</time>
</trkpt>
<trkpt lat="41.7722033" lon="13.7679733">
<ele>1424.47</ele>
<time>2024-08-28T09:24:16.000Z</time>
</trkpt>
<trkpt lat="41.7722183" lon="13.7677167">
<ele>1417.41</ele>
<time>2024-08-28T09:24:28.000Z</time>
</trkpt>
<trkpt lat="41.7722350" lon="13.7674567">
<ele>1415.51</ele>
<time>2024-08-28T09:24:41.000Z</time>
</trkpt>
<trkpt lat="41.7721000" lon="13.7672883">
<ele>1428.49</ele>
<time>2024-08-28T09:24:56.000Z</time>
</trkpt>
<trkpt lat="41.7719100" lon="13.7673833">
<ele>1436.09</ele>
<time>2024-08-28T09:25:08.000Z</time>
</trkpt>
<trkpt lat="41.7717650" lon="13.7675467">
<ele>1443.16</ele>
<time>2024-08-28T09:25:17.000Z</time>
</trkpt>
<trkpt lat="41.7716967" lon="13.7677917">
<ele>1450.53</ele>
<time>2024-08-28T09:25:32.000Z</time>
</trkpt>
<trkpt lat="41.7716583" lon="13.7680283">
<ele>1454.39</ele>
<time>2024-08-28T09:25:41.000Z</time>
</trkpt>
<trkpt lat="41.7715250" lon="13.7682150">
<ele>1451.43</ele>
<time>2024-08-28T09:25:51.000Z</time>
</trkpt>
<trkpt lat="41.7713450" lon="13.7682967">
<ele>1450.61</ele>
<time>2024-08-28T09:26:05.000Z</time>
</trkpt>
<trkpt lat="41.7711667" lon="13.7684067">
<ele>1449.35</ele>
<time>2024-08-28T09:26:17.000Z</time>
</trkpt>
<trkpt lat="41.7709867" lon="13.7684633">
<ele>1450.83</ele>
<time>2024-08-28T09:26:27.000Z</time>
</trkpt>
<trkpt lat="41.7708683" lon="13.7686533">
<ele>1451.61</ele>
<time>2024-08-28T09:26:41.000Z</time>
</trkpt>
<trkpt lat="41.7707783" lon="13.7688667">
<ele>1449.68</ele>
<time>2024-08-28T09:26:51.000Z</time>
</trkpt>
<trkpt lat="41.7706183" lon="13.7689817">
<ele>1447.75</ele>
<time>2024-08-28T09:27:02.000Z</time>
</trkpt>
<trkpt lat="41.7704733" lon="13.7691467">
<ele>1444.94</ele>
<time>2024-08-28T09:27:11.000Z</time>
</trkpt>
<trkpt lat="41.7702900" lon="13.7692083">
<ele>1439.61</ele>
<time>2024-08-28T09:27:21.000Z</time>
</trkpt>
<trkpt lat="41.7699783" lon="13.7694050">
<ele>1457.17</ele>
<time>2024-08-28T09:27:55.000Z</time>
</trkpt>
<trkpt lat="41.7697950" lon="13.7693833">
<ele>1431.69</ele>
<time>2024-08-28T09:29:26.000Z</time>
</trkpt>
<trkpt lat="41.7696117" lon="13.7694267">
<ele>1426.57</ele>
<time>2024-08-28T09:29:33.000Z</time>
</trkpt>
<trkpt lat="41.7694300" lon="13.7693617">
<ele>1422.99</ele>
<time>2024-08-28T09:29:41.000Z</time>
</trkpt>
<trkpt lat="41.7692483" lon="13.7693133">
<ele>1420.66</ele>
<time>2024-08-28T09:29:48.000Z</time>
</trkpt>
<trkpt lat="41.7690550" lon="13.7692650">
<ele>1424.48</ele>
<time>2024-08-28T09:29:56.000Z</time>
</trkpt>
<trkpt lat="41.7688600" lon="13.7691617">
<ele>1427.81</ele>
<time>2024-08-28T09:30:05.000Z</time>
</trkpt>
<trkpt lat="41.7687150" lon="13.7690067">
<ele>1430.22</ele>
<time>2024-08-28T09:30:17.000Z</time>
</trkpt>
<trkpt lat="41.7685783" lon="13.7688417">
<ele>1441.27</ele>
<time>2024-08-28T09:30:30.000Z</time>
</trkpt>
<trkpt lat="41.7684267" lon="13.7687017">
<ele>1462.97</ele>
<time>2024-08-28T09:31:24.000Z</time>
</trkpt>
<trkpt lat="41.7682500" lon="13.7688183">
<ele>1457.36</ele>
<time>2024-08-28T09:31:32.000Z</time>
</trkpt>
<trkpt lat="41.7681317" lon="13.7690033">
<ele>1448.95</ele>
<time>2024-08-28T09:31:39.000Z</time>
</trkpt>
<trkpt lat="41.7681117" lon="13.7692783">
<ele>1443.41</ele>
<time>2024-08-28T09:31:47.000Z</time>
</trkpt>
<trkpt lat="41.7681350" lon="13.7695500">
<ele>1440.11</ele>
<time>2024-08-28T09:31:53.000Z</time>
</trkpt>
<trkpt lat="41.7680533" lon="13.7697767">
<ele>1436.78</ele>
<time>2024-08-28T09:32:00.000Z</time>
</trkpt>
<trkpt lat="41.7678633" lon="13.7697750">
<ele>1435.47</ele>
<time>2024-08-28T09:32:09.000Z</time>
</trkpt>
<trkpt lat="41.7676800" lon="13.7697467">
<ele>1435.12</ele>
<time>2024-08-28T09:32:19.000Z</time>
</trkpt>
<trkpt lat="41.7674800" lon="13.7697233">
<ele>1437.81</ele>
<time>2024-08-28T09:32:26.000Z</time>
</trkpt>
<trkpt lat="41.7672850" lon="13.7697417">
<ele>1439.05</ele>
<time>2024-08-28T09:32:31.000Z</time>
</trkpt>
<trkpt lat="41.7670867" lon="13.7697750">
<ele>1439.37</ele>
<time>2024-08-28T09:32:37.000Z</time>
</trkpt>
<trkpt lat="41.7669350" lon="13.7699417">
<ele>1439.46</ele>
<time>2024-08-28T09:32:43.000Z</time>
</trkpt>
<trkpt lat="41.7669000" lon="13.7701933">
<ele>1437.52</ele>
<time>2024-08-28T09:32:49.000Z</time>
</trkpt>
<trkpt lat="41.7668467" lon="13.7704450">
<ele>1439.39</ele>
<time>2024-08-28T09:32:55.000Z</time>
</trkpt>
<trkpt lat="41.7667300" lon="13.7706517">
<ele>1436.48</ele>
<time>2024-08-28T09:33:00.000Z</time>
</trkpt>
<trkpt lat="41.7666300" lon="13.7708983">
<ele>1431.83</ele>
<time>2024-08-28T09:33:06.000Z</time>
</trkpt>
<trkpt lat="41.7665217" lon="13.7711317">
<ele>1430.78</ele>
<time>2024-08-28T09:33:12.000Z</time>
</trkpt>
<trkpt lat="41.7663800" lon="13.7712900">
<ele>1433.03</ele>
<time>2024-08-28T09:33:17.000Z</time>
</trkpt>
<trkpt lat="41.7662117" lon="13.7713800">
<ele>1433.60</ele>
<time>2024-08-28T09:33:22.000Z</time>
</trkpt>
<trkpt lat="41.7660367" lon="13.7714517">
<ele>1433.27</ele>
<time>2024-08-28T09:33:26.000Z</time>
</trkpt>
<trkpt lat="41.7658567" lon="13.7715400">
<ele>1432.00</ele>
<time>2024-08-28T09:33:31.000Z</time>
</trkpt>
<trkpt lat="41.7656667" lon="13.7715717">
<ele>1430.88</ele>
<time>2024-08-28T09:33:37.000Z</time>
</trkpt>
<trkpt lat="41.7655050" lon="13.7714650">
<ele>1429.46</ele>
<time>2024-08-28T09:33:43.000Z</time>
</trkpt>
<trkpt lat="41.7653217" lon="13.7713483">
<ele>1430.62</ele>
<time>2024-08-28T09:33:49.000Z</time>
</trkpt>
<trkpt lat="41.7651333" lon="13.7712333">
<ele>1430.61</ele>
<time>2024-08-28T09:33:55.000Z</time>
</trkpt>
<trkpt lat="41.7649500" lon="13.7713267">
<ele>1429.30</ele>
<time>2024-08-28T09:34:01.000Z</time>
</trkpt>
<trkpt lat="41.7648367" lon="13.7715300">
<ele>1426.88</ele>
<time>2024-08-28T09:34:08.000Z</time>
</trkpt>
<trkpt lat="41.7646383" lon="13.7716467">
<ele>1425.97</ele>
<time>2024-08-28T09:34:15.000Z</time>
</trkpt>
<trkpt lat="41.7644483" lon="13.7717100">
<ele>1426.02</ele>
<time>2024-08-28T09:34:21.000Z</time>
</trkpt>
<trkpt lat="41.7642667" lon="13.7717417">
<ele>1425.45</ele>
<time>2024-08-28T09:34:28.000Z</time>
</trkpt>
<trkpt lat="41.7640733" lon="13.7717650">
<ele>1424.95</ele>
<time>2024-08-28T09:34:34.000Z</time>
</trkpt>
<trkpt lat="41.7638800" lon="13.7718050">
<ele>1427.75</ele>
<time>2024-08-28T09:34:41.000Z</time>
</trkpt>
<trkpt lat="41.7636733" lon="13.7717967">
<ele>1428.22</ele>
<time>2024-08-28T09:34:47.000Z</time>
</trkpt>
<trkpt lat="41.7634583" lon="13.7718250">
<ele>1424.86</ele>
<time>2024-08-28T09:34:52.000Z</time>
</trkpt>
<trkpt lat="41.7632667" lon="13.7718050">
<ele>1423.23</ele>
<time>2024-08-28T09:34:57.000Z</time>
</trkpt>
<trkpt lat="41.7630783" lon="13.7717333">
<ele>1419.78</ele>
<time>2024-08-28T09:35:04.000Z</time>
</trkpt>
<trkpt lat="41.7629150" lon="13.7716200">
<ele>1418.31</ele>
<time>2024-08-28T09:35:11.000Z</time>
</trkpt>
<trkpt lat="41.7627483" lon="13.7714717">
<ele>1421.54</ele>
<time>2024-08-28T09:35:18.000Z</time>
</trkpt>
<trkpt lat="41.7625833" lon="13.7713100">
<ele>1425.87</ele>
<time>2024-08-28T09:35:26.000Z</time>
</trkpt>
<trkpt lat="41.7623800" lon="13.7712467">
<ele>1426.09</ele>
<time>2024-08-28T09:35:32.000Z</time>
</trkpt>
<trkpt lat="41.7622000" lon="13.7712883">
<ele>1424.82</ele>
<time>2024-08-28T09:35:36.000Z</time>
</trkpt>
<trkpt lat="41.7620383" lon="13.7714000">
<ele>1423.51</ele>
<time>2024-08-28T09:35:41.000Z</time>
</trkpt>
<trkpt lat="41.7619050" lon="13.7716250">
<ele>1419.84</ele>
<time>2024-08-28T09:35:48.000Z</time>
</trkpt>
<trkpt lat="41.7617783" lon="13.7718317">
<ele>1419.99</ele>
<time>2024-08-28T09:35:53.000Z</time>
</trkpt>
<trkpt lat="41.7616667" lon="13.7720933">
<ele>1425.43</ele>
<time>2024-08-28T09:35:58.000Z</time>
</trkpt>
<trkpt lat="41.7616533" lon="13.7723817">
<ele>1430.41</ele>
<time>2024-08-28T09:36:02.000Z</time>
</trkpt>
<trkpt lat="41.7615967" lon="13.7726450">
<ele>1432.91</ele>
<time>2024-08-28T09:36:06.000Z</time>
</trkpt>
<trkpt lat="41.7615750" lon="13.7729300">
<ele>1432.63</ele>
<time>2024-08-28T09:36:11.000Z</time>
</trkpt>
<trkpt lat="41.7615417" lon="13.7732100">
<ele>1431.02</ele>
<time>2024-08-28T09:36:16.000Z</time>
</trkpt>
<trkpt lat="41.7614883" lon="13.7734433">
<ele>1428.72</ele>
<time>2024-08-28T09:36:21.000Z</time>
</trkpt>
<trkpt lat="41.7614600" lon="13.7737000">
<ele>1424.81</ele>
<time>2024-08-28T09:36:27.000Z</time>
</trkpt>
<trkpt lat="41.7614250" lon="13.7739567">
<ele>1421.15</ele>
<time>2024-08-28T09:36:34.000Z</time>
</trkpt>
<trkpt lat="41.7614500" lon="13.7742000">
<ele>1419.17</ele>
<time>2024-08-28T09:36:38.000Z</time>
</trkpt>
<trkpt lat="41.7614567" lon="13.7744433">
<ele>1416.33</ele>
<time>2024-08-28T09:36:43.000Z</time>
</trkpt>
<trkpt lat="41.7614267" lon="13.7747017">
<ele>1414.11</ele>
<time>2024-08-28T09:36:50.000Z</time>
</trkpt>
<trkpt lat="41.7614467" lon="13.7749867">
<ele>1414.03</ele>
<time>2024-08-28T09:36:56.000Z</time>
</trkpt>
<trkpt lat="41.7615083" lon="13.7752133">
<ele>1412.44</ele>
<time>2024-08-28T09:37:01.000Z</time>
</trkpt>
<trkpt lat="41.7615633" lon="13.7754433">
<ele>1408.28</ele>
<time>2024-08-28T09:37:05.000Z</time>
</trkpt>
<trkpt lat="41.7615717" lon="13.7756850">
<ele>1403.80</ele>
<time>2024-08-28T09:37:10.000Z</time>
</trkpt>
<trkpt lat="41.7615217" lon="13.7759183">
<ele>1400.92</ele>
<time>2024-08-28T09:37:15.000Z</time>
</trkpt>
<trkpt lat="41.7614783" lon="13.7761750">
<ele>1400.61</ele>
<time>2024-08-28T09:37:20.000Z</time>
</trkpt>
<trkpt lat="41.7614333" lon="13.7764300">
<ele>1400.64</ele>
<time>2024-08-28T09:37:25.000Z</time>
</trkpt>
<trkpt lat="41.7614283" lon="13.7766933">
<ele>1397.89</ele>
<time>2024-08-28T09:37:32.000Z</time>
</trkpt>
<trkpt lat="41.7613717" lon="13.7769600">
<ele>1395.46</ele>
<time>2024-08-28T09:37:40.000Z</time>
</trkpt>
<trkpt lat="41.7613600" lon="13.7772033">
<ele>1394.25</ele>
<time>2024-08-28T09:37:46.000Z</time>
</trkpt>
<trkpt lat="41.7612633" lon="13.7774583">
<ele>1391.61</ele>
<time>2024-08-28T09:37:52.000Z</time>
</trkpt>
<trkpt lat="41.7611917" lon="13.7776933">
<ele>1390.31</ele>
<time>2024-08-28T09:37:57.000Z</time>
</trkpt>
<trkpt lat="41.7611467" lon="13.7779633">
<ele>1397.52</ele>
<time>2024-08-28T09:38:07.000Z</time>
</trkpt>
<trkpt lat="41.7610350" lon="13.7781600">
<ele>1401.03</ele>
<time>2024-08-28T09:38:14.000Z</time>
</trkpt>
<trkpt lat="41.7609067" lon="13.7783800">
<ele>1399.32</ele>
<time>2024-08-28T09:38:21.000Z</time>
</trkpt>
<trkpt lat="41.7607283" lon="13.7785683">
<ele>1398.21</ele>
<time>2024-08-28T09:38:26.000Z</time>
</trkpt>
<trkpt lat="41.7605783" lon="13.7787633">
<ele>1396.44</ele>
<time>2024-08-28T09:38:31.000Z</time>
</trkpt>
<trkpt lat="41.7604367" lon="13.7789133">
<ele>1391.42</ele>
<time>2024-08-28T09:38:39.000Z</time>
</trkpt>
<trkpt lat="41.7603150" lon="13.7791017">
<ele>1389.40</ele>
<time>2024-08-28T09:40:15.000Z</time>
</trkpt>
<trkpt lat="41.7601783" lon="13.7792917">
<ele>1387.38</ele>
<time>2024-08-28T09:40:22.000Z</time>
</trkpt>
<trkpt lat="41.7601167" lon="13.7795300">
<ele>1389.52</ele>
<time>2024-08-28T09:40:28.000Z</time>
</trkpt>
<trkpt lat="41.7601050" lon="13.7798033">
<ele>1387.14</ele>
<time>2024-08-28T09:40:34.000Z</time>
</trkpt>
<trkpt lat="41.7600583" lon="13.7800783">
<ele>1386.07</ele>
<time>2024-08-28T09:40:40.000Z</time>
</trkpt>
<trkpt lat="41.7600433" lon="13.7803383">
<ele>1380.41</ele>
<time>2024-08-28T09:40:45.000Z</time>
</trkpt>
<trkpt lat="41.7600450" lon="13.7805817">
<ele>1382.83</ele>
<time>2024-08-28T09:40:54.000Z</time>
</trkpt>
<trkpt lat="41.7600517" lon="13.7808317">
<ele>1380.83</ele>
<time>2024-08-28T09:41:00.000Z</time>
</trkpt>
<trkpt lat="41.7600567" lon="13.7810733">
<ele>1374.70</ele>
<time>2024-08-28T09:41:09.000Z</time>
</trkpt>
<trkpt lat="41.7601767" lon="13.7812550">
<ele>1418.43</ele>
<time>2024-08-28T09:41:28.000Z</time>
</trkpt>
<trkpt lat="41.7603417" lon="13.7815167">
<ele>1423.18</ele>
<time>2024-08-28T09:41:31.000Z</time>
</trkpt>
<trkpt lat="41.7605783" lon="13.7816233">
<ele>1425.30</ele>
<time>2024-08-28T09:41:32.000Z</time>
</trkpt>
<trkpt lat="41.7608433" lon="13.7817433">
<ele>1428.31</ele>
<time>2024-08-28T09:41:33.000Z</time>
</trkpt>
<trkpt lat="41.7609783" lon="13.7814950">
<ele>1434.62</ele>
<time>2024-08-28T09:41:37.000Z</time>
</trkpt>
<trkpt lat="41.7607900" lon="13.7814000">
<ele>1436.66</ele>
<time>2024-08-28T09:41:44.000Z</time>
</trkpt>
<trkpt lat="41.7605217" lon="13.7813417">
<ele>1423.83</ele>
<time>2024-08-28T09:41:52.000Z</time>
</trkpt>
<trkpt lat="41.7602867" lon="13.7813033">
<ele>1425.42</ele>
<time>2024-08-28T09:41:53.000Z</time>
</trkpt>
<trkpt lat="41.7600833" lon="13.7811733">
<ele>1393.09</ele>
<time>2024-08-28T09:42:48.000Z</time>
</trkpt>
<trkpt lat="41.7602733" lon="13.7812400">
<ele>1380.63</ele>
<time>2024-08-28T09:44:01.000Z</time>
</trkpt>
<trkpt lat="41.7604683" lon="13.7811967">
<ele>1375.06</ele>
<time>2024-08-28T09:44:07.000Z</time>
</trkpt>
<trkpt lat="41.7606417" lon="13.7811300">
<ele>1370.19</ele>
<time>2024-08-28T09:44:15.000Z</time>
</trkpt>
<trkpt lat="41.7608350" lon="13.7811600">
<ele>1366.41</ele>
<time>2024-08-28T09:44:22.000Z</time>
</trkpt>
<trkpt lat="41.7610150" lon="13.7812750">
<ele>1366.15</ele>
<time>2024-08-28T09:44:29.000Z</time>
</trkpt>
<trkpt lat="41.7611867" lon="13.7813967">
<ele>1364.83</ele>
<time>2024-08-28T09:44:38.000Z</time>
</trkpt>
<trkpt lat="41.7613767" lon="13.7814517">
<ele>1366.95</ele>
<time>2024-08-28T09:44:47.000Z</time>
</trkpt>
<trkpt lat="41.7615567" lon="13.7815067">
<ele>1367.09</ele>
<time>2024-08-28T09:44:56.000Z</time>
</trkpt>
<trkpt lat="41.7617517" lon="13.7815633">
<ele>1372.04</ele>
<time>2024-08-28T09:45:05.000Z</time>
</trkpt>
<trkpt lat="41.7619500" lon="13.7816433">
<ele>1377.24</ele>
<time>2024-08-28T09:45:14.000Z</time>
</trkpt>
<trkpt lat="41.7621217" lon="13.7817317">
<ele>1376.92</ele>
<time>2024-08-28T09:45:24.000Z</time>
</trkpt>
<trkpt lat="41.7622850" lon="13.7818700">
<ele>1374.23</ele>
<time>2024-08-28T09:45:32.000Z</time>
</trkpt>
<trkpt lat="41.7624567" lon="13.7819700">
<ele>1371.71</ele>
<time>2024-08-28T09:45:39.000Z</time>
</trkpt>
<trkpt lat="41.7626017" lon="13.7821567">
<ele>1366.29</ele>
<time>2024-08-28T09:45:45.000Z</time>
</trkpt>
<trkpt lat="41.7627333" lon="13.7823450">
<ele>1362.26</ele>
<time>2024-08-28T09:45:52.000Z</time>
</trkpt>
<trkpt lat="41.7628733" lon="13.7825067">
<ele>1364.91</ele>
<time>2024-08-28T09:46:01.000Z</time>
</trkpt>
<trkpt lat="41.7630417" lon="13.7826067">
<ele>1364.02</ele>
<time>2024-08-28T09:46:08.000Z</time>
</trkpt>
<trkpt lat="41.7632383" lon="13.7826883">
<ele>1360.96</ele>
<time>2024-08-28T09:46:14.000Z</time>
</trkpt>
<trkpt lat="41.7634183" lon="13.7825883">
<ele>1360.15</ele>
<time>2024-08-28T09:46:35.000Z</time>
</trkpt>
<trkpt lat="41.7635850" lon="13.7824617">
<ele>1359.19</ele>
<time>2024-08-28T09:46:44.000Z</time>
</trkpt>
<trkpt lat="41.7637550" lon="13.7823700">
<ele>1358.43</ele>
<time>2024-08-28T09:46:52.000Z</time>
</trkpt>
<trkpt lat="41.7639317" lon="13.7822833">
<ele>1363.03</ele>
<time>2024-08-28T09:47:00.000Z</time>
</trkpt>
<trkpt lat="41.7641117" lon="13.7822517">
<ele>1363.30</ele>
<time>2024-08-28T09:47:08.000Z</time>
</trkpt>
<trkpt lat="41.7643000" lon="13.7822433">
<ele>1362.47</ele>
<time>2024-08-28T09:47:17.000Z</time>
</trkpt>
<trkpt lat="41.7644867" lon="13.7822817">
<ele>1363.10</ele>
<time>2024-08-28T09:47:28.000Z</time>
</trkpt>
<trkpt lat="41.7646683" lon="13.7822550">
<ele>1366.48</ele>
<time>2024-08-28T09:47:38.000Z</time>
</trkpt>
<trkpt lat="41.7648550" lon="13.7822217">
<ele>1366.96</ele>
<time>2024-08-28T09:47:48.000Z</time>
</trkpt>
<trkpt lat="41.7650350" lon="13.7822433">
<ele>1365.15</ele>
<time>2024-08-28T09:47:59.000Z</time>
</trkpt>
<trkpt lat="41.7652217" lon="13.7821950">
<ele>1368.06</ele>
<time>2024-08-28T09:48:10.000Z</time>
</trkpt>
<trkpt lat="41.7653933" lon="13.7822983">
<ele>1367.40</ele>
<time>2024-08-28T09:48:19.000Z</time>
</trkpt>
<trkpt lat="41.7655500" lon="13.7824717">
<ele>1364.76</ele>
<time>2024-08-28T09:48:28.000Z</time>
</trkpt>
<trkpt lat="41.7657100" lon="13.7826383">
<ele>1366.60</ele>
<time>2024-08-28T09:48:35.000Z</time>
</trkpt>
<trkpt lat="41.7658833" lon="13.7827467">
<ele>1369.00</ele>
<time>2024-08-28T09:48:42.000Z</time>
</trkpt>
<trkpt lat="41.7660517" lon="13.7828967">
<ele>1368.75</ele>
<time>2024-08-28T09:48:50.000Z</time>
</trkpt>
<trkpt lat="41.7662283" lon="13.7828417">
<ele>1366.05</ele>
<time>2024-08-28T09:48:57.000Z</time>
</trkpt>
<trkpt lat="41.7664067" lon="13.7827933">
<ele>1363.55</ele>
<time>2024-08-28T09:49:05.000Z</time>
</trkpt>
<trkpt lat="41.7665267" lon="13.7825900">
<ele>1364.45</ele>
<time>2024-08-28T09:49:13.000Z</time>
</trkpt>
<trkpt lat="41.7666117" lon="13.7823417">
<ele>1362.93</ele>
<time>2024-08-28T09:49:21.000Z</time>
</trkpt>
<trkpt lat="41.7667017" lon="13.7821167">
<ele>1362.52</ele>
<time>2024-08-28T09:49:29.000Z</time>
</trkpt>
<trkpt lat="41.7668633" lon="13.7819717">
<ele>1362.19</ele>
<time>2024-08-28T09:49:37.000Z</time>
</trkpt>
<trkpt lat="41.7670200" lon="13.7818333">
<ele>1363.66</ele>
<time>2024-08-28T09:49:45.000Z</time>
</trkpt>
<trkpt lat="41.7671867" lon="13.7816967">
<ele>1364.14</ele>
<time>2024-08-28T09:49:53.000Z</time>
</trkpt>
<trkpt lat="41.7673817" lon="13.7816383">
<ele>1366.59</ele>
<time>2024-08-28T09:50:03.000Z</time>
</trkpt>
<trkpt lat="41.7675033" lon="13.7814450">
<ele>1368.30</ele>
<time>2024-08-28T09:50:14.000Z</time>
</trkpt>
<trkpt lat="41.7676167" lon="13.7812533">
<ele>1368.33</ele>
<time>2024-08-28T09:50:24.000Z</time>
</trkpt>
<trkpt lat="41.7677933" lon="13.7811367">
<ele>1364.82</ele>
<time>2024-08-28T09:50:33.000Z</time>
</trkpt>
<trkpt lat="41.7679833" lon="13.7810667">
<ele>1365.18</ele>
<time>2024-08-28T09:50:41.000Z</time>
</trkpt>
<trkpt lat="41.7680883" lon="13.7808417">
<ele>1364.56</ele>
<time>2024-08-28T09:50:49.000Z</time>
</trkpt>
<trkpt lat="41.7680983" lon="13.7805817">
<ele>1362.48</ele>
<time>2024-08-28T09:51:00.000Z</time>
</trkpt>
<trkpt lat="41.7679833" lon="13.7803317">
<ele>1360.01</ele>
<time>2024-08-28T09:51:06.000Z</time>
</trkpt>
<trkpt lat="41.7679283" lon="13.7800733">
<ele>1358.85</ele>
<time>2024-08-28T09:51:12.000Z</time>
</trkpt>
<trkpt lat="41.7678067" lon="13.7798700">
<ele>1359.49</ele>
<time>2024-08-28T09:51:18.000Z</time>
</trkpt>
<trkpt lat="41.7677550" lon="13.7796267">
<ele>1357.63</ele>
<time>2024-08-28T09:51:24.000Z</time>
</trkpt>
<trkpt lat="41.7676967" lon="13.7793933">
<ele>1353.46</ele>
<time>2024-08-28T09:51:30.000Z</time>
</trkpt>
<trkpt lat="41.7676017" lon="13.7791667">
<ele>1353.00</ele>
<time>2024-08-28T09:51:37.000Z</time>
</trkpt>
<trkpt lat="41.7675300" lon="13.7789400">
<ele>1353.70</ele>
<time>2024-08-28T09:51:44.000Z</time>
</trkpt>
<trkpt lat="41.7674783" lon="13.7787000">
<ele>1355.90</ele>
<time>2024-08-28T09:51:52.000Z</time>
</trkpt>
<trkpt lat="41.7674717" lon="13.7784550">
<ele>1356.53</ele>
<time>2024-08-28T09:52:00.000Z</time>
</trkpt>
<trkpt lat="41.7675767" lon="13.7782483">
<ele>1357.50</ele>
<time>2024-08-28T09:52:09.000Z</time>
</trkpt>
<trkpt lat="41.7677600" lon="13.7781750">
<ele>1356.67</ele>
<time>2024-08-28T09:52:16.000Z</time>
</trkpt>
<trkpt lat="41.7678233" lon="13.7779483">
<ele>1354.18</ele>
<time>2024-08-28T09:52:23.000Z</time>
</trkpt>
<trkpt lat="41.7677883" lon="13.7776817">
<ele>1353.65</ele>
<time>2024-08-28T09:52:29.000Z</time>
</trkpt>
<trkpt lat="41.7676617" lon="13.7774967">
<ele>1353.43</ele>
<time>2024-08-28T09:52:35.000Z</time>
</trkpt>
<trkpt lat="41.7675233" lon="13.7773050">
<ele>1353.71</ele>
<time>2024-08-28T09:52:43.000Z</time>
</trkpt>
<trkpt lat="41.7674700" lon="13.7770683">
<ele>1355.27</ele>
<time>2024-08-28T09:52:53.000Z</time>
</trkpt>
<trkpt lat="41.7674100" lon="13.7768350">
<ele>1358.28</ele>
<time>2024-08-28T09:53:03.000Z</time>
</trkpt>
<trkpt lat="41.7673950" lon="13.7765867">
<ele>1359.46</ele>
<time>2024-08-28T09:53:13.000Z</time>
</trkpt>
<trkpt lat="41.7673183" lon="13.7763683">
<ele>1360.90</ele>
<time>2024-08-28T09:53:23.000Z</time>
</trkpt>
<trkpt lat="41.7673833" lon="13.7761400">
<ele>1360.45</ele>
<time>2024-08-28T09:53:35.000Z</time>
</trkpt>
<trkpt lat="41.7675533" lon="13.7760417">
<ele>1361.23</ele>
<time>2024-08-28T09:53:45.000Z</time>
</trkpt>
<trkpt lat="41.7677383" lon="13.7761433">
<ele>1360.87</ele>
<time>2024-08-28T09:53:54.000Z</time>
</trkpt>
<trkpt lat="41.7679183" lon="13.7761300">
<ele>1360.77</ele>
<time>2024-08-28T09:54:02.000Z</time>
</trkpt>
<trkpt lat="41.7680617" lon="13.7759567">
<ele>1363.34</ele>
<time>2024-08-28T09:54:11.000Z</time>
</trkpt>
<trkpt lat="41.7681617" lon="13.7757317">
<ele>1361.35</ele>
<time>2024-08-28T09:54:20.000Z</time>
</trkpt>
<trkpt lat="41.7683750" lon="13.7757567">
<ele>1361.47</ele>
<time>2024-08-28T09:54:26.000Z</time>
</trkpt>
<trkpt lat="41.7685767" lon="13.7758250">
<ele>1359.19</ele>
<time>2024-08-28T09:54:31.000Z</time>
</trkpt>
<trkpt lat="41.7687617" lon="13.7757383">
<ele>1356.65</ele>
<time>2024-08-28T09:54:36.000Z</time>
</trkpt>
<trkpt lat="41.7689400" lon="13.7756733">
<ele>1357.36</ele>
<time>2024-08-28T09:54:42.000Z</time>
</trkpt>
<trkpt lat="41.7691100" lon="13.7755850">
<ele>1359.58</ele>
<time>2024-08-28T09:54:50.000Z</time>
</trkpt>
<trkpt lat="41.7692883" lon="13.7754933">
<ele>1363.45</ele>
<time>2024-08-28T09:55:00.000Z</time>
</trkpt>
<trkpt lat="41.7694733" lon="13.7754567">
<ele>1366.63</ele>
<time>2024-08-28T09:55:11.000Z</time>
</trkpt>
<trkpt lat="41.7695633" lon="13.7752417">
<ele>1368.76</ele>
<time>2024-08-28T09:55:25.000Z</time>
</trkpt>
<trkpt lat="41.7696817" lon="13.7750350">
<ele>1367.94</ele>
<time>2024-08-28T09:55:38.000Z</time>
</trkpt>
<trkpt lat="41.7697550" lon="13.7747983">
<ele>1366.88</ele>
<time>2024-08-28T09:55:46.000Z</time>
</trkpt>
<trkpt lat="41.7698783" lon="13.7746100">
<ele>1368.56</ele>
<time>2024-08-28T09:55:58.000Z</time>
</trkpt>
<trkpt lat="41.7699967" lon="13.7744283">
<ele>1367.45</ele>
<time>2024-08-28T09:56:11.000Z</time>
</trkpt>
<trkpt lat="41.7702050" lon="13.7743483">
<ele>1367.03</ele>
<time>2024-08-28T09:56:18.000Z</time>
</trkpt>
<trkpt lat="41.7703900" lon="13.7742900">
<ele>1366.59</ele>
<time>2024-08-28T09:56:22.000Z</time>
</trkpt>
<trkpt lat="41.7705633" lon="13.7742133">
<ele>1365.24</ele>
<time>2024-08-28T09:56:26.000Z</time>
</trkpt>
<trkpt lat="41.7707200" lon="13.7740667">
<ele>1362.23</ele>
<time>2024-08-28T09:56:31.000Z</time>
</trkpt>
<trkpt lat="41.7708983" lon="13.7739850">
<ele>1363.49</ele>
<time>2024-08-28T09:56:43.000Z</time>
</trkpt>
<trkpt lat="41.7710767" lon="13.7740950">
<ele>1366.37</ele>
<time>2024-08-28T09:56:56.000Z</time>
</trkpt>
<trkpt lat="41.7712600" lon="13.7740467">
<ele>1368.17</ele>
<time>2024-08-28T09:57:11.000Z</time>
</trkpt>
<trkpt lat="41.7714467" lon="13.7740633">
<ele>1371.70</ele>
<time>2024-08-28T09:57:37.000Z</time>
</trkpt>
<trkpt lat="41.7716167" lon="13.7739700">
<ele>1375.67</ele>
<time>2024-08-28T09:57:51.000Z</time>
</trkpt>
<trkpt lat="41.7717417" lon="13.7737850">
<ele>1374.56</ele>
<time>2024-08-28T09:58:04.000Z</time>
</trkpt>
<trkpt lat="41.7718883" lon="13.7736433">
<ele>1377.37</ele>
<time>2024-08-28T09:58:18.000Z</time>
</trkpt>
<trkpt lat="41.7720933" lon="13.7737133">
<ele>1377.00</ele>
<time>2024-08-28T09:58:26.000Z</time>
</trkpt>
<trkpt lat="41.7722700" lon="13.7736300">
<ele>1376.38</ele>
<time>2024-08-28T09:58:32.000Z</time>
</trkpt>
<trkpt lat="41.7723700" lon="13.7734267">
<ele>1377.78</ele>
<time>2024-08-28T09:58:44.000Z</time>
</trkpt>
<trkpt lat="41.7724883" lon="13.7732433">
<ele>1378.15</ele>
<time>2024-08-28T09:58:53.000Z</time>
</trkpt>
<trkpt lat="41.7724617" lon="13.7729900">
<ele>1379.60</ele>
<time>2024-08-28T09:59:04.000Z</time>
</trkpt>
<trkpt lat="41.7724650" lon="13.7727367">
<ele>1378.87</ele>
<time>2024-08-28T09:59:10.000Z</time>
</trkpt>
<trkpt lat="41.7723233" lon="13.7725783">
<ele>1379.68</ele>
<time>2024-08-28T09:59:17.000Z</time>
</trkpt>
<trkpt lat="41.7721650" lon="13.7724533">
<ele>1377.75</ele>
<time>2024-08-28T09:59:25.000Z</time>
</trkpt>
<trkpt lat="41.7720817" lon="13.7722350">
<ele>1374.54</ele>
<time>2024-08-28T09:59:37.000Z</time>
</trkpt>
<trkpt lat="41.7720783" lon="13.7719883">
<ele>1375.29</ele>
<time>2024-08-28T09:59:45.000Z</time>
</trkpt>
<trkpt lat="41.7721000" lon="13.7717400">
<ele>1373.73</ele>
<time>2024-08-28T09:59:53.000Z</time>
</trkpt>
<trkpt lat="41.7720133" lon="13.7715017">
<ele>1366.50</ele>
<time>2024-08-28T10:00:03.000Z</time>
</trkpt>
<trkpt lat="41.7720400" lon="13.7712300">
<ele>1365.77</ele>
<time>2024-08-28T10:00:10.000Z</time>
</trkpt>
<trkpt lat="41.7721017" lon="13.7709783">
<ele>1366.99</ele>
<time>2024-08-28T10:00:17.000Z</time>
</trkpt>
<trkpt lat="41.7721183" lon="13.7707333">
<ele>1371.18</ele>
<time>2024-08-28T10:02:03.000Z</time>
</trkpt>
<trkpt lat="41.7722600" lon="13.7705667">
<ele>1367.69</ele>
<time>2024-08-28T10:02:12.000Z</time>
</trkpt>
<trkpt lat="41.7724200" lon="13.7704000">
<ele>1365.12</ele>
<time>2024-08-28T10:02:20.000Z</time>
</trkpt>
<trkpt lat="41.7725833" lon="13.7702933">
<ele>1365.84</ele>
<time>2024-08-28T10:02:26.000Z</time>
</trkpt>
<trkpt lat="41.7727950" lon="13.7702500">
<ele>1365.31</ele>
<time>2024-08-28T10:02:32.000Z</time>
</trkpt>
<trkpt lat="41.7729833" lon="13.7702317">
<ele>1363.93</ele>
<time>2024-08-28T10:02:37.000Z</time>
</trkpt>
<trkpt lat="41.7731667" lon="13.7702100">
<ele>1363.89</ele>
<time>2024-08-28T10:02:43.000Z</time>
</trkpt>
<trkpt lat="41.7733500" lon="13.7702050">
<ele>1363.54</ele>
<time>2024-08-28T10:02:50.000Z</time>
</trkpt>
<trkpt lat="41.7735533" lon="13.7701783">
<ele>1367.84</ele>
<time>2024-08-28T10:02:56.000Z</time>
</trkpt>
<trkpt lat="41.7737250" lon="13.7702783">
<ele>1369.85</ele>
<time>2024-08-28T10:03:08.000Z</time>
</trkpt>
<trkpt lat="41.7738783" lon="13.7704500">
<ele>1365.06</ele>
<time>2024-08-28T10:03:17.000Z</time>
</trkpt>
<trkpt lat="41.7740483" lon="13.7705517">
<ele>1360.57</ele>
<time>2024-08-28T10:03:27.000Z</time>
</trkpt>
<trkpt lat="41.7741583" lon="13.7707533">
<ele>1361.44</ele>
<time>2024-08-28T10:03:41.000Z</time>
</trkpt>
<trkpt lat="41.7742400" lon="13.7709833">
<ele>1358.68</ele>
<time>2024-08-28T10:03:50.000Z</time>
</trkpt>
<trkpt lat="41.7742233" lon="13.7714450">
<ele>1394.88</ele>
<time>2024-08-28T10:04:06.000Z</time>
</trkpt>
<trkpt lat="41.7742817" lon="13.7711817">
<ele>1393.23</ele>
<time>2024-08-28T10:04:41.000Z</time>
</trkpt>
<trkpt lat="41.7743517" lon="13.7714083">
<ele>1358.42</ele>
<time>2024-08-28T10:05:27.000Z</time>
</trkpt>
<trkpt lat="41.7744817" lon="13.7716017">
<ele>1363.39</ele>
<time>2024-08-28T10:05:35.000Z</time>
</trkpt>
<trkpt lat="41.7746733" lon="13.7716317">
<ele>1365.52</ele>
<time>2024-08-28T10:05:47.000Z</time>
</trkpt>
<trkpt lat="41.7748533" lon="13.7715733">
<ele>1372.16</ele>
<time>2024-08-28T10:06:00.000Z</time>
</trkpt>
<trkpt lat="41.7750483" lon="13.7715600">
<ele>1375.80</ele>
<time>2024-08-28T10:06:12.000Z</time>
</trkpt>
<trkpt lat="41.7752367" lon="13.7715883">
<ele>1373.76</ele>
<time>2024-08-28T10:06:21.000Z</time>
</trkpt>
<trkpt lat="41.7754267" lon="13.7716100">
<ele>1372.51</ele>
<time>2024-08-28T10:06:28.000Z</time>
</trkpt>
<trkpt lat="41.7756117" lon="13.7716267">
<ele>1371.33</ele>
<time>2024-08-28T10:06:34.000Z</time>
</trkpt>
<trkpt lat="41.7757817" lon="13.7715417">
<ele>1368.98</ele>
<time>2024-08-28T10:06:41.000Z</time>
</trkpt>
<trkpt lat="41.7759917" lon="13.7715950">
<ele>1368.99</ele>
<time>2024-08-28T10:06:48.000Z</time>
</trkpt>
<trkpt lat="41.7762033" lon="13.7716150">
<ele>1370.04</ele>
<time>2024-08-28T10:06:55.000Z</time>
</trkpt>
<trkpt lat="41.7763817" lon="13.7715417">
<ele>1368.65</ele>
<time>2024-08-28T10:07:01.000Z</time>
</trkpt>
<trkpt lat="41.7765150" lon="13.7713500">
<ele>1364.84</ele>
<time>2024-08-28T10:07:06.000Z</time>
</trkpt>
<trkpt lat="41.7766767" lon="13.7711917">
<ele>1363.00</ele>
<time>2024-08-28T10:07:12.000Z</time>
</trkpt>
<trkpt lat="41.7768317" lon="13.7710350">
<ele>1361.73</ele>
<time>2024-08-28T10:07:18.000Z</time>
</trkpt>
<trkpt lat="41.7769917" lon="13.7708700">
<ele>1360.20</ele>
<time>2024-08-28T10:07:24.000Z</time>
</trkpt>
<trkpt lat="41.7771717" lon="13.7707500">
<ele>1357.85</ele>
<time>2024-08-28T10:07:32.000Z</time>
</trkpt>
<trkpt lat="41.7773733" lon="13.7708050">
<ele>1358.65</ele>
<time>2024-08-28T10:07:38.000Z</time>
</trkpt>
<trkpt lat="41.7775633" lon="13.7708733">
<ele>1358.21</ele>
<time>2024-08-28T10:07:44.000Z</time>
</trkpt>
<trkpt lat="41.7777400" lon="13.7709450">
<ele>1359.13</ele>
<time>2024-08-28T10:07:51.000Z</time>
</trkpt>
<trkpt lat="41.7779167" lon="13.7710517">
<ele>1360.64</ele>
<time>2024-08-28T10:07:57.000Z</time>
</trkpt>
<trkpt lat="41.7781050" lon="13.7711233">
<ele>1357.68</ele>
<time>2024-08-28T10:08:03.000Z</time>
</trkpt>
<trkpt lat="41.7782867" lon="13.7712000">
<ele>1354.09</ele>
<time>2024-08-28T10:08:08.000Z</time>
</trkpt>
<trkpt lat="41.7784750" lon="13.7713083">
<ele>1352.58</ele>
<time>2024-08-28T10:08:14.000Z</time>
</trkpt>
<trkpt lat="41.7786517" lon="13.7714217">
<ele>1349.77</ele>
<time>2024-08-28T10:08:20.000Z</time>
</trkpt>
<trkpt lat="41.7788300" lon="13.7715683">
<ele>1348.83</ele>
<time>2024-08-28T10:08:27.000Z</time>
</trkpt>
<trkpt lat="41.7789950" lon="13.7717267">
<ele>1349.10</ele>
<time>2024-08-28T10:08:33.000Z</time>
</trkpt>
<trkpt lat="41.7791600" lon="13.7718250">
<ele>1348.97</ele>
<time>2024-08-28T10:08:39.000Z</time>
</trkpt>
<trkpt lat="41.7792850" lon="13.7716350">
<ele>1352.94</ele>
<time>2024-08-28T10:08:47.000Z</time>
</trkpt>
<trkpt lat="41.7793400" lon="13.7713933">
<ele>1353.49</ele>
<time>2024-08-28T10:08:53.000Z</time>
</trkpt>
<trkpt lat="41.7793950" lon="13.7711450">
<ele>1351.54</ele>
<time>2024-08-28T10:08:59.000Z</time>
</trkpt>
<trkpt lat="41.7794917" lon="13.7709083">
<ele>1347.52</ele>
<time>2024-08-28T10:09:06.000Z</time>
</trkpt>
<trkpt lat="41.7796600" lon="13.7707600">
<ele>1343.33</ele>
<time>2024-08-28T10:09:12.000Z</time>
</trkpt>
<trkpt lat="41.7798383" lon="13.7707100">
<ele>1348.81</ele>
<time>2024-08-28T10:09:18.000Z</time>
</trkpt>
<trkpt lat="41.7800267" lon="13.7706017">
<ele>1351.04</ele>
<time>2024-08-28T10:09:25.000Z</time>
</trkpt>
<trkpt lat="41.7802133" lon="13.7704650">
<ele>1350.05</ele>
<time>2024-08-28T10:09:32.000Z</time>
</trkpt>
<trkpt lat="41.7803933" lon="13.7704433">
<ele>1348.47</ele>
<time>2024-08-28T10:09:42.000Z</time>
</trkpt>
<trkpt lat="41.7806083" lon="13.7704667">
<ele>1353.23</ele>
<time>2024-08-28T10:09:50.000Z</time>
</trkpt>
<trkpt lat="41.7808050" lon="13.7705483">
<ele>1359.50</ele>
<time>2024-08-28T10:09:57.000Z</time>
</trkpt>
<trkpt lat="41.7809800" lon="13.7706317">
<ele>1363.26</ele>
<time>2024-08-28T10:10:03.000Z</time>
</trkpt>
<trkpt lat="41.7811917" lon="13.7706067">
<ele>1358.77</ele>
<time>2024-08-28T10:10:09.000Z</time>
</trkpt>
<trkpt lat="41.7813617" lon="13.7705117">
<ele>1350.17</ele>
<time>2024-08-28T10:10:14.000Z</time>
</trkpt>
<trkpt lat="41.7815267" lon="13.7704150">
<ele>1344.38</ele>
<time>2024-08-28T10:10:20.000Z</time>
</trkpt>
<trkpt lat="41.7817300" lon="13.7703800">
<ele>1341.13</ele>
<time>2024-08-28T10:10:26.000Z</time>
</trkpt>
<trkpt lat="41.7819517" lon="13.7704300">
<ele>1342.93</ele>
<time>2024-08-28T10:10:33.000Z</time>
</trkpt>
<trkpt lat="41.7821667" lon="13.7704233">
<ele>1344.97</ele>
<time>2024-08-28T10:10:38.000Z</time>
</trkpt>
<trkpt lat="41.7823750" lon="13.7704283">
<ele>1345.44</ele>
<time>2024-08-28T10:10:44.000Z</time>
</trkpt>
<trkpt lat="41.7825533" lon="13.7705517">
<ele>1345.11</ele>
<time>2024-08-28T10:10:53.000Z</time>
</trkpt>
<trkpt lat="41.7827233" lon="13.7706517">
<ele>1346.16</ele>
<time>2024-08-28T10:11:01.000Z</time>
</trkpt>
<trkpt lat="41.7829033" lon="13.7707100">
<ele>1347.69</ele>
<time>2024-08-28T10:11:07.000Z</time>
</trkpt>
<trkpt lat="41.7830883" lon="13.7706650">
<ele>1346.55</ele>
<time>2024-08-28T10:11:16.000Z</time>
</trkpt>
<trkpt lat="41.7832783" lon="13.7706833">
<ele>1342.56</ele>
<time>2024-08-28T10:11:24.000Z</time>
</trkpt>
<trkpt lat="41.7834717" lon="13.7707733">
<ele>1343.21</ele>
<time>2024-08-28T10:11:33.000Z</time>
</trkpt>
<trkpt lat="41.7836433" lon="13.7707000">
<ele>1334.97</ele>
<time>2024-08-28T10:11:39.000Z</time>
</trkpt>
<trkpt lat="41.7838233" lon="13.7705600">
<ele>1329.87</ele>
<time>2024-08-28T10:11:46.000Z</time>
</trkpt>
<trkpt lat="41.7839817" lon="13.7704333">
<ele>1329.85</ele>
<time>2024-08-28T10:11:54.000Z</time>
</trkpt>
<trkpt lat="41.7841217" lon="13.7702500">
<ele>1328.63</ele>
<time>2024-08-28T10:12:01.000Z</time>
</trkpt>
<trkpt lat="41.7842567" lon="13.7700800">
<ele>1326.89</ele>
<time>2024-08-28T10:12:09.000Z</time>
</trkpt>
<trkpt lat="41.7844117" lon="13.7699300">
<ele>1326.97</ele>
<time>2024-08-28T10:12:18.000Z</time>
</trkpt>
<trkpt lat="41.7845517" lon="13.7697417">
<ele>1328.89</ele>
<time>2024-08-28T10:12:26.000Z</time>
</trkpt>
<trkpt lat="41.7846450" lon="13.7699733">
<ele>1337.62</ele>
<time>2024-08-28T10:12:48.000Z</time>
</trkpt>
<trkpt lat="41.7847300" lon="13.7701883">
<ele>1339.93</ele>
<time>2024-08-28T10:12:57.000Z</time>
</trkpt>
<trkpt lat="41.7847483" lon="13.7704667">
<ele>1337.92</ele>
<time>2024-08-28T10:13:04.000Z</time>
</trkpt>
<trkpt lat="41.7847833" lon="13.7707067">
<ele>1335.76</ele>
<time>2024-08-28T10:13:11.000Z</time>
</trkpt>
<trkpt lat="41.7847717" lon="13.7709633">
<ele>1331.73</ele>
<time>2024-08-28T10:13:18.000Z</time>
</trkpt>
<trkpt lat="41.7847133" lon="13.7712050">
<ele>1327.55</ele>
<time>2024-08-28T10:13:24.000Z</time>
</trkpt>
<trkpt lat="41.7846467" lon="13.7714467">
<ele>1323.46</ele>
<time>2024-08-28T10:13:30.000Z</time>
</trkpt>
<trkpt lat="41.7846450" lon="13.7717033">
<ele>1319.28</ele>
<time>2024-08-28T10:13:36.000Z</time>
</trkpt>
<trkpt lat="41.7846733" lon="13.7719517">
<ele>1316.67</ele>
<time>2024-08-28T10:13:42.000Z</time>
</trkpt>
<trkpt lat="41.7847367" lon="13.7721983">
<ele>1314.61</ele>
<time>2024-08-28T10:13:49.000Z</time>
</trkpt>
<trkpt lat="41.7849200" lon="13.7722183">
<ele>1310.04</ele>
<time>2024-08-28T10:13:57.000Z</time>
</trkpt>
<trkpt lat="41.7850433" lon="13.7720350">
<ele>1305.35</ele>
<time>2024-08-28T10:14:06.000Z</time>
</trkpt>
<trkpt lat="41.7851600" lon="13.7718200">
<ele>1302.38</ele>
<time>2024-08-28T10:14:13.000Z</time>
</trkpt>
<trkpt lat="41.7852667" lon="13.7715917">
<ele>1300.43</ele>
<time>2024-08-28T10:14:20.000Z</time>
</trkpt>
<trkpt lat="41.7853750" lon="13.7713883">
<ele>1296.71</ele>
<time>2024-08-28T10:14:26.000Z</time>
</trkpt>
<trkpt lat="41.7854933" lon="13.7711633">
<ele>1294.41</ele>
<time>2024-08-28T10:14:32.000Z</time>
</trkpt>
<trkpt lat="41.7855800" lon="13.7709400">
<ele>1294.33</ele>
<time>2024-08-28T10:14:38.000Z</time>
</trkpt>
<trkpt lat="41.7856600" lon="13.7707033">
<ele>1292.94</ele>
<time>2024-08-28T10:14:45.000Z</time>
</trkpt>
<trkpt lat="41.7857350" lon="13.7704750">
<ele>1291.72</ele>
<time>2024-08-28T10:14:51.000Z</time>
</trkpt>
<trkpt lat="41.7858067" lon="13.7702117">
<ele>1287.00</ele>
<time>2024-08-28T10:14:58.000Z</time>
</trkpt>
<trkpt lat="41.7858800" lon="13.7699733">
<ele>1284.74</ele>
<time>2024-08-28T10:15:04.000Z</time>
</trkpt>
<trkpt lat="41.7860000" lon="13.7697483">
<ele>1285.13</ele>
<time>2024-08-28T10:15:12.000Z</time>
</trkpt>
<trkpt lat="41.7861517" lon="13.7695767">
<ele>1284.48</ele>
<time>2024-08-28T10:15:20.000Z</time>
</trkpt>
<trkpt lat="41.7862900" lon="13.7693583">
<ele>1282.76</ele>
<time>2024-08-28T10:15:30.000Z</time>
</trkpt>
<trkpt lat="41.7864000" lon="13.7691617">
<ele>1280.99</ele>
<time>2024-08-28T10:15:37.000Z</time>
</trkpt>
<trkpt lat="41.7865383" lon="13.7689967">
<ele>1282.20</ele>
<time>2024-08-28T10:15:46.000Z</time>
</trkpt>
<trkpt lat="41.7866583" lon="13.7688150">
<ele>1283.25</ele>
<time>2024-08-28T10:15:55.000Z</time>
</trkpt>
<trkpt lat="41.7867333" lon="13.7685750">
<ele>1280.43</ele>
<time>2024-08-28T10:16:04.000Z</time>
</trkpt>
<trkpt lat="41.7867900" lon="13.7683117">
<ele>1274.57</ele>
<time>2024-08-28T10:16:11.000Z</time>
</trkpt>
<trkpt lat="41.7868650" lon="13.7680717">
<ele>1269.56</ele>
<time>2024-08-28T10:16:18.000Z</time>
</trkpt>
<trkpt lat="41.7869667" lon="13.7678650">
<ele>1269.38</ele>
<time>2024-08-28T10:16:29.000Z</time>
</trkpt>
<trkpt lat="41.7870883" lon="13.7676650">
<ele>1274.01</ele>
<time>2024-08-28T10:16:40.000Z</time>
</trkpt>
<trkpt lat="41.7872367" lon="13.7675183">
<ele>1272.32</ele>
<time>2024-08-28T10:16:52.000Z</time>
</trkpt>
<trkpt lat="41.7873483" lon="13.7677150">
<ele>1270.93</ele>
<time>2024-08-28T10:17:06.000Z</time>
</trkpt>
<trkpt lat="41.7872650" lon="13.7679567">
<ele>1272.24</ele>
<time>2024-08-28T10:17:18.000Z</time>
</trkpt>
<trkpt lat="41.7871583" lon="13.7681817">
<ele>1272.46</ele>
<time>2024-08-28T10:17:26.000Z</time>
</trkpt>
<trkpt lat="41.7870717" lon="13.7683950">
<ele>1270.10</ele>
<time>2024-08-28T10:17:33.000Z</time>
</trkpt>
<trkpt lat="41.7869983" lon="13.7686333">
<ele>1267.85</ele>
<time>2024-08-28T10:17:40.000Z</time>
</trkpt>
<trkpt lat="41.7869300" lon="13.7688583">
<ele>1265.80</ele>
<time>2024-08-28T10:17:44.000Z</time>
</trkpt>
<trkpt lat="41.7868617" lon="13.7691200">
<ele>1262.85</ele>
<time>2024-08-28T10:17:49.000Z</time>
</trkpt>
<trkpt lat="41.7868033" lon="13.7693500">
<ele>1260.28</ele>
<time>2024-08-28T10:17:54.000Z</time>
</trkpt>
<trkpt lat="41.7867417" lon="13.7695917">
<ele>1258.91</ele>
<time>2024-08-28T10:17:59.000Z</time>
</trkpt>
<trkpt lat="41.7866517" lon="13.7698383">
<ele>1256.86</ele>
<time>2024-08-28T10:18:04.000Z</time>
</trkpt>
<trkpt lat="41.7865867" lon="13.7700733">
<ele>1256.90</ele>
<time>2024-08-28T10:18:09.000Z</time>
</trkpt>
<trkpt lat="41.7865083" lon="13.7703100">
<ele>1256.60</ele>
<time>2024-08-28T10:18:14.000Z</time>
</trkpt>
<trkpt lat="41.7865217" lon="13.7705667">
<ele>1255.59</ele>
<time>2024-08-28T10:18:21.000Z</time>
</trkpt>
<trkpt lat="41.7865967" lon="13.7708467">
<ele>1256.33</ele>
<time>2024-08-28T10:18:26.000Z</time>
</trkpt>
<trkpt lat="41.7866933" lon="13.7711317">
<ele>1256.03</ele>
<time>2024-08-28T10:18:30.000Z</time>
</trkpt>
<trkpt lat="41.7867750" lon="13.7714033">
<ele>1256.38</ele>
<time>2024-08-28T10:18:34.000Z</time>
</trkpt>
<trkpt lat="41.7867483" lon="13.7716733">
<ele>1252.79</ele>
<time>2024-08-28T10:18:42.000Z</time>
</trkpt>
<trkpt lat="41.7867833" lon="13.7719533">
<ele>1246.29</ele>
<time>2024-08-28T10:18:50.000Z</time>
</trkpt>
<trkpt lat="41.7869033" lon="13.7721450">
<ele>1244.79</ele>
<time>2024-08-28T10:18:57.000Z</time>
</trkpt>
<trkpt lat="41.7869950" lon="13.7723550">
<ele>1242.66</ele>
<time>2024-08-28T10:19:03.000Z</time>
</trkpt>
<trkpt lat="41.7871100" lon="13.7725533">
<ele>1240.70</ele>
<time>2024-08-28T10:19:09.000Z</time>
</trkpt>
<trkpt lat="41.7872350" lon="13.7727317">
<ele>1235.80</ele>
<time>2024-08-28T10:19:16.000Z</time>
</trkpt>
<trkpt lat="41.7873883" lon="13.7728917">
<ele>1232.64</ele>
<time>2024-08-28T10:19:24.000Z</time>
</trkpt>
<trkpt lat="41.7874767" lon="13.7731217">
<ele>1228.14</ele>
<time>2024-08-28T10:19:34.000Z</time>
</trkpt>
<trkpt lat="41.7875333" lon="13.7733750">
<ele>1231.55</ele>
<time>2024-08-28T10:19:53.000Z</time>
</trkpt>
<trkpt lat="41.7876700" lon="13.7735783">
<ele>1234.26</ele>
<time>2024-08-28T10:19:59.000Z</time>
</trkpt>
<trkpt lat="41.7878433" lon="13.7737217">
<ele>1231.78</ele>
<time>2024-08-28T10:20:05.000Z</time>
</trkpt>
<trkpt lat="41.7880083" lon="13.7738750">
<ele>1220.48</ele>
<time>2024-08-28T10:20:14.000Z</time>
</trkpt>
<trkpt lat="41.7881483" lon="13.7740633">
<ele>1220.71</ele>
<time>2024-08-28T10:20:21.000Z</time>
</trkpt>
<trkpt lat="41.7882333" lon="13.7742900">
<ele>1219.26</ele>
<time>2024-08-28T10:20:31.000Z</time>
</trkpt>
<trkpt lat="41.7883850" lon="13.7744633">
<ele>1233.20</ele>
<time>2024-08-28T10:20:37.000Z</time>
</trkpt>
<trkpt lat="41.7885617" lon="13.7745950">
<ele>1246.03</ele>
<time>2024-08-28T10:20:44.000Z</time>
</trkpt>
<trkpt lat="41.7887400" lon="13.7747500">
<ele>1249.63</ele>
<time>2024-08-28T10:20:49.000Z</time>
</trkpt>
<trkpt lat="41.7888833" lon="13.7749050">
<ele>1250.23</ele>
<time>2024-08-28T10:20:55.000Z</time>
</trkpt>
<trkpt lat="41.7889550" lon="13.7751483">
<ele>1246.23</ele>
<time>2024-08-28T10:21:01.000Z</time>
</trkpt>
<trkpt lat="41.7889817" lon="13.7754100">
<ele>1245.34</ele>
<time>2024-08-28T10:21:07.000Z</time>
</trkpt>
<trkpt lat="41.7890750" lon="13.7756233">
<ele>1246.79</ele>
<time>2024-08-28T10:21:13.000Z</time>
</trkpt>
<trkpt lat="41.7891333" lon="13.7758967">
<ele>1241.41</ele>
<time>2024-08-28T10:21:20.000Z</time>
</trkpt>
<trkpt lat="41.7891967" lon="13.7761600">
<ele>1228.38</ele>
<time>2024-08-28T10:21:26.000Z</time>
</trkpt>
<trkpt lat="41.7893217" lon="13.7763667">
<ele>1219.81</ele>
<time>2024-08-28T10:21:31.000Z</time>
</trkpt>
<trkpt lat="41.7894250" lon="13.7765983">
<ele>1208.35</ele>
<time>2024-08-28T10:21:41.000Z</time>
</trkpt>
<trkpt lat="41.7895517" lon="13.7768050">
<ele>1204.39</ele>
<time>2024-08-28T10:21:49.000Z</time>
</trkpt>
<trkpt lat="41.7896617" lon="13.7770050">
<ele>1206.19</ele>
<time>2024-08-28T10:21:54.000Z</time>
</trkpt>
<trkpt lat="41.7897700" lon="13.7772183">
<ele>1203.60</ele>
<time>2024-08-28T10:22:01.000Z</time>
</trkpt>
<trkpt lat="41.7899233" lon="13.7774017">
<ele>1200.52</ele>
<time>2024-08-28T10:22:07.000Z</time>
</trkpt>
<trkpt lat="41.7900783" lon="13.7775300">
<ele>1196.89</ele>
<time>2024-08-28T10:22:12.000Z</time>
</trkpt>
<trkpt lat="41.7902383" lon="13.7776750">
<ele>1191.23</ele>
<time>2024-08-28T10:22:18.000Z</time>
</trkpt>
<trkpt lat="41.7904217" lon="13.7777433">
<ele>1189.41</ele>
<time>2024-08-28T10:22:25.000Z</time>
</trkpt>
<trkpt lat="41.7906050" lon="13.7778250">
<ele>1186.77</ele>
<time>2024-08-28T10:22:33.000Z</time>
</trkpt>
<trkpt lat="41.7907800" lon="13.7779117">
<ele>1184.38</ele>
<time>2024-08-28T10:22:40.000Z</time>
</trkpt>
<trkpt lat="41.7909817" lon="13.7780267">
<ele>1183.93</ele>
<time>2024-08-28T10:22:45.000Z</time>
</trkpt>
<trkpt lat="41.7911667" lon="13.7780817">
<ele>1182.98</ele>
<time>2024-08-28T10:23:22.000Z</time>
</trkpt>
<trkpt lat="41.7913600" lon="13.7781883">
<ele>1182.53</ele>
<time>2024-08-28T10:23:28.000Z</time>
</trkpt>
<trkpt lat="41.7915350" lon="13.7782767">
<ele>1181.91</ele>
<time>2024-08-28T10:23:35.000Z</time>
</trkpt>
<trkpt lat="41.7917017" lon="13.7783700">
<ele>1179.89</ele>
<time>2024-08-28T10:23:43.000Z</time>
</trkpt>
<trkpt lat="41.7919117" lon="13.7784267">
<ele>1178.29</ele>
<time>2024-08-28T10:23:50.000Z</time>
</trkpt>
<trkpt lat="41.7921233" lon="13.7785133">
<ele>1176.95</ele>
<time>2024-08-28T10:23:55.000Z</time>
</trkpt>
<trkpt lat="41.7923133" lon="13.7786267">
<ele>1175.83</ele>
<time>2024-08-28T10:24:00.000Z</time>
</trkpt>
<trkpt lat="41.7925067" lon="13.7787150">
<ele>1175.32</ele>
<time>2024-08-28T10:24:05.000Z</time>
</trkpt>
<trkpt lat="41.7927000" lon="13.7787867">
<ele>1172.23</ele>
<time>2024-08-28T10:24:10.000Z</time>
</trkpt>
<trkpt lat="41.7928850" lon="13.7788733">
<ele>1171.74</ele>
<time>2024-08-28T10:24:15.000Z</time>
</trkpt>
<trkpt lat="41.7930650" lon="13.7789567">
<ele>1169.65</ele>
<time>2024-08-28T10:24:22.000Z</time>
</trkpt>
<trkpt lat="41.7932583" lon="13.7790367">
<ele>1170.56</ele>
<time>2024-08-28T10:24:28.000Z</time>
</trkpt>
<trkpt lat="41.7934300" lon="13.7791350">
<ele>1170.44</ele>
<time>2024-08-28T10:24:33.000Z</time>
</trkpt>
<trkpt lat="41.7935800" lon="13.7792833">
<ele>1168.36</ele>
<time>2024-08-28T10:24:38.000Z</time>
</trkpt>
<trkpt lat="41.7936617" lon="13.7795033">
<ele>1168.39</ele>
<time>2024-08-28T10:24:44.000Z</time>
</trkpt>
<trkpt lat="41.7937583" lon="13.7797667">
<ele>1168.69</ele>
<time>2024-08-28T10:24:50.000Z</time>
</trkpt>
<trkpt lat="41.7938667" lon="13.7800133">
<ele>1167.15</ele>
<time>2024-08-28T10:24:55.000Z</time>
</trkpt>
<trkpt lat="41.7939700" lon="13.7802350">
<ele>1165.66</ele>
<time>2024-08-28T10:24:59.000Z</time>
</trkpt>
<trkpt lat="41.7940533" lon="13.7804700">
<ele>1163.57</ele>
<time>2024-08-28T10:25:03.000Z</time>
</trkpt>
<trkpt lat="41.7941433" lon="13.7806917">
<ele>1161.79</ele>
<time>2024-08-28T10:25:07.000Z</time>
</trkpt>
<trkpt lat="41.7942150" lon="13.7809250">
<ele>1160.11</ele>
<time>2024-08-28T10:25:12.000Z</time>
</trkpt>
<trkpt lat="41.7942733" lon="13.7811850">
<ele>1158.89</ele>
<time>2024-08-28T10:25:18.000Z</time>
</trkpt>
<trkpt lat="41.7943300" lon="13.7814200">
<ele>1157.79</ele>
<time>2024-08-28T10:25:23.000Z</time>
</trkpt>
<trkpt lat="41.7943900" lon="13.7816550">
<ele>1156.30</ele>
<time>2024-08-28T10:25:30.000Z</time>
</trkpt>
<trkpt lat="41.7945200" lon="13.7818333">
<ele>1157.34</ele>
<time>2024-08-28T10:25:37.000Z</time>
</trkpt>
<trkpt lat="41.7946933" lon="13.7819683">
<ele>1156.46</ele>
<time>2024-08-28T10:25:43.000Z</time>
</trkpt>
<trkpt lat="41.7948483" lon="13.7821050">
<ele>1157.05</ele>
<time>2024-08-28T10:25:48.000Z</time>
</trkpt>
<trkpt lat="41.7950200" lon="13.7822383">
<ele>1156.66</ele>
<time>2024-08-28T10:25:53.000Z</time>
</trkpt>
<trkpt lat="41.7951800" lon="13.7823933">
<ele>1155.90</ele>
<time>2024-08-28T10:25:58.000Z</time>
</trkpt>
<trkpt lat="41.7953317" lon="13.7825233">
<ele>1156.56</ele>
<time>2024-08-28T10:26:04.000Z</time>
</trkpt>
<trkpt lat="41.7953800" lon="13.7827783">
<ele>1160.56</ele>
<time>2024-08-28T10:26:11.000Z</time>
</trkpt>
<trkpt lat="41.7954283" lon="13.7830167">
<ele>1161.98</ele>
<time>2024-08-28T10:26:17.000Z</time>
</trkpt>
<trkpt lat="41.7952783" lon="13.7831750">
<ele>1153.02</ele>
<time>2024-08-28T10:28:25.000Z</time>
</trkpt>
<trkpt lat="41.7951467" lon="13.7833417">
<ele>1151.18</ele>
<time>2024-08-28T10:28:39.000Z</time>
</trkpt>
<trkpt lat="41.7952400" lon="13.7835567">
<ele>1154.03</ele>
<time>2024-08-28T10:30:04.000Z</time>
</trkpt>
<trkpt lat="41.7954000" lon="13.7837850">
<ele>1155.65</ele>
<time>2024-08-28T10:30:06.000Z</time>
</trkpt>
<trkpt lat="41.7955817" lon="13.7839250">
<ele>1156.18</ele>
<time>2024-08-28T10:30:08.000Z</time>
</trkpt>
<trkpt lat="41.7957750" lon="13.7841500">
<ele>1157.06</ele>
<time>2024-08-28T10:30:11.000Z</time>
</trkpt>
<trkpt lat="41.7959250" lon="13.7843483">
<ele>1159.26</ele>
<time>2024-08-28T10:30:14.000Z</time>
</trkpt>
<extensions>
<om:oruxmapsextensions>
<om:ext type="NAME" subtype="0"><![CDATA[Segment: 1]]></om:ext>
</om:oruxmapsextensions>
</extensions>
</trkseg>
</trk>
</gpx>
